<?xml version="1.0" encoding="UTF-8" standalone="no" ?>
<gpx xmlns="http://www.topografix.com/GPX/1/1" xmlns:xsi="http://www.w3.org/2001/XMLSchema-instance" xsi:schemaLocation="http://www.topografix.com/GPX/1/1 http://www.topografix.com/GPX/1/1/gpx.xsd" version="1.1" creator="VisuGPX - https://www.visugpx.com">
  <metadata>
    <name>9 - &amp;quot;Via Garona&amp;quot; - Lourès-Barousse à Saint-Gaudens</name>
    <desc><![CDATA[Parcours réalisé.

]]></desc>
  </metadata>
  <trk>
    <name><![CDATA[30 août 2022 à 08:04:48]]></name>
    <cmt><![CDATA[30 août 2022 à 08:04:48]]></cmt>
    <trkseg>
      <trkpt lat="43.02433" lon="0.60473">
        <ele>445</ele>
        <time>2022-08-30T06:04:48Z</time>
      </trkpt>
      <trkpt lat="43.02432" lon="0.60474">
        <ele>445</ele>
        <time>2022-08-30T06:04:49Z</time>
      </trkpt>
      <trkpt lat="43.02433" lon="0.60474">
        <ele>445</ele>
        <time>2022-08-30T06:05:23Z</time>
      </trkpt>
      <trkpt lat="43.02441" lon="0.60458">
        <ele>445</ele>
        <time>2022-08-30T06:05:56Z</time>
      </trkpt>
      <trkpt lat="43.0244" lon="0.60468">
        <ele>445</ele>
        <time>2022-08-30T06:06:00Z</time>
      </trkpt>
      <trkpt lat="43.02441" lon="0.60474">
        <ele>445</ele>
        <time>2022-08-30T06:06:03Z</time>
      </trkpt>
      <trkpt lat="43.02435" lon="0.60476">
        <ele>446</ele>
        <time>2022-08-30T06:06:23Z</time>
      </trkpt>
      <trkpt lat="43.02436" lon="0.60474">
        <ele>445</ele>
        <time>2022-08-30T06:08:05Z</time>
      </trkpt>
      <trkpt lat="43.02432" lon="0.60483">
        <ele>445</ele>
        <time>2022-08-30T06:08:23Z</time>
      </trkpt>
      <trkpt lat="43.02441" lon="0.60479">
        <ele>445</ele>
        <time>2022-08-30T06:08:47Z</time>
      </trkpt>
      <trkpt lat="43.02466" lon="0.60473">
        <ele>446</ele>
        <time>2022-08-30T06:09:15Z</time>
      </trkpt>
      <trkpt lat="43.0247" lon="0.60467">
        <ele>445</ele>
        <time>2022-08-30T06:09:20Z</time>
      </trkpt>
      <trkpt lat="43.02476" lon="0.60469">
        <ele>445</ele>
        <time>2022-08-30T06:09:25Z</time>
      </trkpt>
      <trkpt lat="43.02497" lon="0.60511">
        <ele>445</ele>
        <time>2022-08-30T06:09:46Z</time>
      </trkpt>
      <trkpt lat="43.02505" lon="0.6053">
        <ele>445</ele>
        <time>2022-08-30T06:09:58Z</time>
      </trkpt>
      <trkpt lat="43.02511" lon="0.60541">
        <ele>446</ele>
        <time>2022-08-30T06:10:07Z</time>
      </trkpt>
      <trkpt lat="43.02513" lon="0.60547">
        <ele>446</ele>
        <time>2022-08-30T06:10:11Z</time>
      </trkpt>
      <trkpt lat="43.02518" lon="0.60552">
        <ele>446</ele>
        <time>2022-08-30T06:10:25Z</time>
      </trkpt>
      <trkpt lat="43.02525" lon="0.60563">
        <ele>446</ele>
        <time>2022-08-30T06:10:33Z</time>
      </trkpt>
      <trkpt lat="43.02535" lon="0.60587">
        <ele>445</ele>
        <time>2022-08-30T06:10:49Z</time>
      </trkpt>
      <trkpt lat="43.02554" lon="0.60628">
        <ele>444</ele>
        <time>2022-08-30T06:11:19Z</time>
      </trkpt>
      <trkpt lat="43.02563" lon="0.6064">
        <ele>444</ele>
        <time>2022-08-30T06:11:29Z</time>
      </trkpt>
      <trkpt lat="43.02567" lon="0.60647">
        <ele>444</ele>
        <time>2022-08-30T06:11:35Z</time>
      </trkpt>
      <trkpt lat="43.02587" lon="0.60679">
        <ele>443</ele>
        <time>2022-08-30T06:12:01Z</time>
      </trkpt>
      <trkpt lat="43.02591" lon="0.60681">
        <ele>444</ele>
        <time>2022-08-30T06:12:04Z</time>
      </trkpt>
      <trkpt lat="43.02593" lon="0.60688">
        <ele>444</ele>
        <time>2022-08-30T06:12:07Z</time>
      </trkpt>
      <trkpt lat="43.02595" lon="0.60692">
        <ele>443</ele>
        <time>2022-08-30T06:12:10Z</time>
      </trkpt>
      <trkpt lat="43.02605" lon="0.60705">
        <ele>443</ele>
        <time>2022-08-30T06:12:22Z</time>
      </trkpt>
      <trkpt lat="43.02607" lon="0.60712">
        <ele>443</ele>
        <time>2022-08-30T06:12:26Z</time>
      </trkpt>
      <trkpt lat="43.02611" lon="0.60717">
        <ele>443</ele>
        <time>2022-08-30T06:12:34Z</time>
      </trkpt>
      <trkpt lat="43.02619" lon="0.60728">
        <ele>443</ele>
        <time>2022-08-30T06:12:41Z</time>
      </trkpt>
      <trkpt lat="43.0262" lon="0.60734">
        <ele>444</ele>
        <time>2022-08-30T06:13:07Z</time>
      </trkpt>
      <trkpt lat="43.02628" lon="0.6074">
        <ele>443</ele>
        <time>2022-08-30T06:13:16Z</time>
      </trkpt>
      <trkpt lat="43.02632" lon="0.60746">
        <ele>443</ele>
        <time>2022-08-30T06:13:20Z</time>
      </trkpt>
      <trkpt lat="43.02636" lon="0.60751">
        <ele>443</ele>
        <time>2022-08-30T06:13:25Z</time>
      </trkpt>
      <trkpt lat="43.02654" lon="0.6078">
        <ele>443</ele>
        <time>2022-08-30T06:13:48Z</time>
      </trkpt>
      <trkpt lat="43.02661" lon="0.60788">
        <ele>443</ele>
        <time>2022-08-30T06:13:56Z</time>
      </trkpt>
      <trkpt lat="43.02664" lon="0.60792">
        <ele>443</ele>
        <time>2022-08-30T06:14:00Z</time>
      </trkpt>
      <trkpt lat="43.02667" lon="0.60798">
        <ele>443</ele>
        <time>2022-08-30T06:14:04Z</time>
      </trkpt>
      <trkpt lat="43.0267" lon="0.60803">
        <ele>443</ele>
        <time>2022-08-30T06:14:08Z</time>
      </trkpt>
      <trkpt lat="43.02675" lon="0.60811">
        <ele>443</ele>
        <time>2022-08-30T06:14:14Z</time>
      </trkpt>
      <trkpt lat="43.02681" lon="0.60818">
        <ele>443</ele>
        <time>2022-08-30T06:14:20Z</time>
      </trkpt>
      <trkpt lat="43.02684" lon="0.60822">
        <ele>443</ele>
        <time>2022-08-30T06:14:24Z</time>
      </trkpt>
      <trkpt lat="43.02687" lon="0.60827">
        <ele>443</ele>
        <time>2022-08-30T06:14:28Z</time>
      </trkpt>
      <trkpt lat="43.02688" lon="0.60832">
        <ele>443</ele>
        <time>2022-08-30T06:14:31Z</time>
      </trkpt>
      <trkpt lat="43.02698" lon="0.60845">
        <ele>443</ele>
        <time>2022-08-30T06:14:41Z</time>
      </trkpt>
      <trkpt lat="43.02702" lon="0.60848">
        <ele>443</ele>
        <time>2022-08-30T06:14:44Z</time>
      </trkpt>
      <trkpt lat="43.02704" lon="0.60853">
        <ele>443</ele>
        <time>2022-08-30T06:14:47Z</time>
      </trkpt>
      <trkpt lat="43.0271" lon="0.60861">
        <ele>443</ele>
        <time>2022-08-30T06:14:54Z</time>
      </trkpt>
      <trkpt lat="43.02712" lon="0.60866">
        <ele>443</ele>
        <time>2022-08-30T06:14:57Z</time>
      </trkpt>
      <trkpt lat="43.02715" lon="0.60869">
        <ele>443</ele>
        <time>2022-08-30T06:15:00Z</time>
      </trkpt>
      <trkpt lat="43.02728" lon="0.60888">
        <ele>443</ele>
        <time>2022-08-30T06:15:16Z</time>
      </trkpt>
      <trkpt lat="43.02732" lon="0.60891">
        <ele>443</ele>
        <time>2022-08-30T06:15:19Z</time>
      </trkpt>
      <trkpt lat="43.02738" lon="0.609">
        <ele>443</ele>
        <time>2022-08-30T06:15:27Z</time>
      </trkpt>
      <trkpt lat="43.02742" lon="0.60911">
        <ele>443</ele>
        <time>2022-08-30T06:15:34Z</time>
      </trkpt>
      <trkpt lat="43.02746" lon="0.60917">
        <ele>443</ele>
        <time>2022-08-30T06:15:38Z</time>
      </trkpt>
      <trkpt lat="43.02754" lon="0.60926">
        <ele>443</ele>
        <time>2022-08-30T06:15:46Z</time>
      </trkpt>
      <trkpt lat="43.02764" lon="0.60935">
        <ele>443</ele>
        <time>2022-08-30T06:15:58Z</time>
      </trkpt>
      <trkpt lat="43.02768" lon="0.60946">
        <ele>443</ele>
        <time>2022-08-30T06:16:25Z</time>
      </trkpt>
      <trkpt lat="43.02772" lon="0.60951">
        <ele>443</ele>
        <time>2022-08-30T06:16:29Z</time>
      </trkpt>
      <trkpt lat="43.02776" lon="0.60959">
        <ele>443</ele>
        <time>2022-08-30T06:16:36Z</time>
      </trkpt>
      <trkpt lat="43.02784" lon="0.60971">
        <ele>443</ele>
        <time>2022-08-30T06:16:47Z</time>
      </trkpt>
      <trkpt lat="43.02788" lon="0.60977">
        <ele>443</ele>
        <time>2022-08-30T06:16:51Z</time>
      </trkpt>
      <trkpt lat="43.02796" lon="0.60997">
        <ele>444</ele>
        <time>2022-08-30T06:17:03Z</time>
      </trkpt>
      <trkpt lat="43.02798" lon="0.61003">
        <ele>444</ele>
        <time>2022-08-30T06:17:07Z</time>
      </trkpt>
      <trkpt lat="43.02803" lon="0.61016">
        <ele>444</ele>
        <time>2022-08-30T06:17:15Z</time>
      </trkpt>
      <trkpt lat="43.02806" lon="0.61032">
        <ele>444</ele>
        <time>2022-08-30T06:17:29Z</time>
      </trkpt>
      <trkpt lat="43.02809" lon="0.61037">
        <ele>444</ele>
        <time>2022-08-30T06:17:45Z</time>
      </trkpt>
      <trkpt lat="43.02811" lon="0.61049">
        <ele>444</ele>
        <time>2022-08-30T06:17:53Z</time>
      </trkpt>
      <trkpt lat="43.02812" lon="0.61055">
        <ele>443</ele>
        <time>2022-08-30T06:18:11Z</time>
      </trkpt>
      <trkpt lat="43.02814" lon="0.61063">
        <ele>443</ele>
        <time>2022-08-30T06:18:19Z</time>
      </trkpt>
      <trkpt lat="43.02818" lon="0.61067">
        <ele>443</ele>
        <time>2022-08-30T06:18:23Z</time>
      </trkpt>
      <trkpt lat="43.02824" lon="0.61069">
        <ele>443</ele>
        <time>2022-08-30T06:18:29Z</time>
      </trkpt>
      <trkpt lat="43.02836" lon="0.61073">
        <ele>442</ele>
        <time>2022-08-30T06:18:39Z</time>
      </trkpt>
      <trkpt lat="43.02844" lon="0.61091">
        <ele>442</ele>
        <time>2022-08-30T06:18:51Z</time>
      </trkpt>
      <trkpt lat="43.02841" lon="0.61105">
        <ele>443</ele>
        <time>2022-08-30T06:18:59Z</time>
      </trkpt>
      <trkpt lat="43.0284" lon="0.61111">
        <ele>442</ele>
        <time>2022-08-30T06:19:03Z</time>
      </trkpt>
      <trkpt lat="43.02841" lon="0.61118">
        <ele>442</ele>
        <time>2022-08-30T06:19:07Z</time>
      </trkpt>
      <trkpt lat="43.0284" lon="0.61129">
        <ele>442</ele>
        <time>2022-08-30T06:19:13Z</time>
      </trkpt>
      <trkpt lat="43.02843" lon="0.61143">
        <ele>442</ele>
        <time>2022-08-30T06:19:21Z</time>
      </trkpt>
      <trkpt lat="43.02844" lon="0.6115">
        <ele>442</ele>
        <time>2022-08-30T06:19:25Z</time>
      </trkpt>
      <trkpt lat="43.02845" lon="0.61163">
        <ele>442</ele>
        <time>2022-08-30T06:19:35Z</time>
      </trkpt>
      <trkpt lat="43.02852" lon="0.61182">
        <ele>441</ele>
        <time>2022-08-30T06:19:47Z</time>
      </trkpt>
      <trkpt lat="43.02853" lon="0.6119">
        <ele>441</ele>
        <time>2022-08-30T06:19:51Z</time>
      </trkpt>
      <trkpt lat="43.02853" lon="0.61204">
        <ele>441</ele>
        <time>2022-08-30T06:19:59Z</time>
      </trkpt>
      <trkpt lat="43.02858" lon="0.6121">
        <ele>441</ele>
        <time>2022-08-30T06:20:03Z</time>
      </trkpt>
      <trkpt lat="43.02858" lon="0.61218">
        <ele>441</ele>
        <time>2022-08-30T06:20:08Z</time>
      </trkpt>
      <trkpt lat="43.02853" lon="0.61231">
        <ele>441</ele>
        <time>2022-08-30T06:20:16Z</time>
      </trkpt>
      <trkpt lat="43.02849" lon="0.61251">
        <ele>441</ele>
        <time>2022-08-30T06:20:29Z</time>
      </trkpt>
      <trkpt lat="43.02849" lon="0.61258">
        <ele>442</ele>
        <time>2022-08-30T06:20:32Z</time>
      </trkpt>
      <trkpt lat="43.02849" lon="0.61264">
        <ele>442</ele>
        <time>2022-08-30T06:20:36Z</time>
      </trkpt>
      <trkpt lat="43.02847" lon="0.61271">
        <ele>442</ele>
        <time>2022-08-30T06:20:40Z</time>
      </trkpt>
      <trkpt lat="43.02846" lon="0.61278">
        <ele>441</ele>
        <time>2022-08-30T06:20:45Z</time>
      </trkpt>
      <trkpt lat="43.02845" lon="0.61284">
        <ele>441</ele>
        <time>2022-08-30T06:20:49Z</time>
      </trkpt>
      <trkpt lat="43.02844" lon="0.61305">
        <ele>441</ele>
        <time>2022-08-30T06:21:02Z</time>
      </trkpt>
      <trkpt lat="43.02844" lon="0.61318">
        <ele>441</ele>
        <time>2022-08-30T06:21:09Z</time>
      </trkpt>
      <trkpt lat="43.0284" lon="0.61345">
        <ele>441</ele>
        <time>2022-08-30T06:21:26Z</time>
      </trkpt>
      <trkpt lat="43.02831" lon="0.61388">
        <ele>442</ele>
        <time>2022-08-30T06:21:55Z</time>
      </trkpt>
      <trkpt lat="43.02832" lon="0.614">
        <ele>442</ele>
        <time>2022-08-30T06:22:01Z</time>
      </trkpt>
      <trkpt lat="43.02827" lon="0.61431">
        <ele>442</ele>
        <time>2022-08-30T06:22:24Z</time>
      </trkpt>
      <trkpt lat="43.02828" lon="0.61454">
        <ele>443</ele>
        <time>2022-08-30T06:22:37Z</time>
      </trkpt>
      <trkpt lat="43.02832" lon="0.61466">
        <ele>443</ele>
        <time>2022-08-30T06:22:45Z</time>
      </trkpt>
      <trkpt lat="43.02847" lon="0.61503">
        <ele>443</ele>
        <time>2022-08-30T06:23:10Z</time>
      </trkpt>
      <trkpt lat="43.0286" lon="0.61556">
        <ele>443</ele>
        <time>2022-08-30T06:23:45Z</time>
      </trkpt>
      <trkpt lat="43.02865" lon="0.61584">
        <ele>443</ele>
        <time>2022-08-30T06:24:02Z</time>
      </trkpt>
      <trkpt lat="43.02868" lon="0.61591">
        <ele>443</ele>
        <time>2022-08-30T06:24:09Z</time>
      </trkpt>
      <trkpt lat="43.02863" lon="0.61589">
        <ele>443</ele>
        <time>2022-08-30T06:24:21Z</time>
      </trkpt>
      <trkpt lat="43.02866" lon="0.61599">
        <ele>443</ele>
        <time>2022-08-30T06:24:33Z</time>
      </trkpt>
      <trkpt lat="43.02872" lon="0.61613">
        <ele>443</ele>
        <time>2022-08-30T06:24:42Z</time>
      </trkpt>
      <trkpt lat="43.02873" lon="0.6162">
        <ele>443</ele>
        <time>2022-08-30T06:24:47Z</time>
      </trkpt>
      <trkpt lat="43.02875" lon="0.61627">
        <ele>443</ele>
        <time>2022-08-30T06:24:51Z</time>
      </trkpt>
      <trkpt lat="43.02876" lon="0.61632">
        <ele>443</ele>
        <time>2022-08-30T06:24:55Z</time>
      </trkpt>
      <trkpt lat="43.02885" lon="0.61656">
        <ele>443</ele>
        <time>2022-08-30T06:25:13Z</time>
      </trkpt>
      <trkpt lat="43.02892" lon="0.6168">
        <ele>443</ele>
        <time>2022-08-30T06:25:28Z</time>
      </trkpt>
      <trkpt lat="43.029" lon="0.61697">
        <ele>443</ele>
        <time>2022-08-30T06:25:42Z</time>
      </trkpt>
      <trkpt lat="43.02901" lon="0.61704">
        <ele>443</ele>
        <time>2022-08-30T06:25:49Z</time>
      </trkpt>
      <trkpt lat="43.02911" lon="0.61728">
        <ele>443</ele>
        <time>2022-08-30T06:26:06Z</time>
      </trkpt>
      <trkpt lat="43.02915" lon="0.6174">
        <ele>444</ele>
        <time>2022-08-30T06:26:14Z</time>
      </trkpt>
      <trkpt lat="43.02922" lon="0.61752">
        <ele>444</ele>
        <time>2022-08-30T06:26:22Z</time>
      </trkpt>
      <trkpt lat="43.02925" lon="0.61765">
        <ele>444</ele>
        <time>2022-08-30T06:26:32Z</time>
      </trkpt>
      <trkpt lat="43.02932" lon="0.61776">
        <ele>445</ele>
        <time>2022-08-30T06:26:43Z</time>
      </trkpt>
      <trkpt lat="43.02936" lon="0.6178">
        <ele>445</ele>
        <time>2022-08-30T06:26:48Z</time>
      </trkpt>
      <trkpt lat="43.02939" lon="0.61785">
        <ele>446</ele>
        <time>2022-08-30T06:26:56Z</time>
      </trkpt>
      <trkpt lat="43.02945" lon="0.61787">
        <ele>446</ele>
        <time>2022-08-30T06:27:01Z</time>
      </trkpt>
      <trkpt lat="43.02965" lon="0.6179">
        <ele>448</ele>
        <time>2022-08-30T06:27:22Z</time>
      </trkpt>
      <trkpt lat="43.02975" lon="0.61789">
        <ele>449</ele>
        <time>2022-08-30T06:27:32Z</time>
      </trkpt>
      <trkpt lat="43.02987" lon="0.61791">
        <ele>449</ele>
        <time>2022-08-30T06:27:46Z</time>
      </trkpt>
      <trkpt lat="43.02999" lon="0.61788">
        <ele>450</ele>
        <time>2022-08-30T06:28:00Z</time>
      </trkpt>
      <trkpt lat="43.0301" lon="0.6178">
        <ele>451</ele>
        <time>2022-08-30T06:28:12Z</time>
      </trkpt>
      <trkpt lat="43.03018" lon="0.6177">
        <ele>451</ele>
        <time>2022-08-30T06:28:26Z</time>
      </trkpt>
      <trkpt lat="43.03053" lon="0.61763">
        <ele>454</ele>
        <time>2022-08-30T06:29:03Z</time>
      </trkpt>
      <trkpt lat="43.03059" lon="0.61764">
        <ele>454</ele>
        <time>2022-08-30T06:29:09Z</time>
      </trkpt>
      <trkpt lat="43.03064" lon="0.61768">
        <ele>455</ele>
        <time>2022-08-30T06:29:14Z</time>
      </trkpt>
      <trkpt lat="43.0307" lon="0.61769">
        <ele>455</ele>
        <time>2022-08-30T06:29:19Z</time>
      </trkpt>
      <trkpt lat="43.03074" lon="0.61773">
        <ele>455</ele>
        <time>2022-08-30T06:29:24Z</time>
      </trkpt>
      <trkpt lat="43.03078" lon="0.6178">
        <ele>455</ele>
        <time>2022-08-30T06:29:29Z</time>
      </trkpt>
      <trkpt lat="43.03086" lon="0.61825">
        <ele>457</ele>
        <time>2022-08-30T06:30:03Z</time>
      </trkpt>
      <trkpt lat="43.03086" lon="0.61851">
        <ele>459</ele>
        <time>2022-08-30T06:30:23Z</time>
      </trkpt>
      <trkpt lat="43.03081" lon="0.61857">
        <ele>459</ele>
        <time>2022-08-30T06:30:47Z</time>
      </trkpt>
      <trkpt lat="43.03076" lon="0.61861">
        <ele>459</ele>
        <time>2022-08-30T06:31:17Z</time>
      </trkpt>
      <trkpt lat="43.03081" lon="0.61868">
        <ele>459</ele>
        <time>2022-08-30T06:31:28Z</time>
      </trkpt>
      <trkpt lat="43.03091" lon="0.61902">
        <ele>460</ele>
        <time>2022-08-30T06:31:52Z</time>
      </trkpt>
      <trkpt lat="43.0309" lon="0.61908">
        <ele>460</ele>
        <time>2022-08-30T06:31:56Z</time>
      </trkpt>
      <trkpt lat="43.03094" lon="0.6193">
        <ele>460</ele>
        <time>2022-08-30T06:32:12Z</time>
      </trkpt>
      <trkpt lat="43.03103" lon="0.61956">
        <ele>461</ele>
        <time>2022-08-30T06:32:30Z</time>
      </trkpt>
      <trkpt lat="43.03109" lon="0.61969">
        <ele>461</ele>
        <time>2022-08-30T06:32:38Z</time>
      </trkpt>
      <trkpt lat="43.03112" lon="0.61982">
        <ele>461</ele>
        <time>2022-08-30T06:32:47Z</time>
      </trkpt>
      <trkpt lat="43.03116" lon="0.61989">
        <ele>462</ele>
        <time>2022-08-30T06:32:54Z</time>
      </trkpt>
      <trkpt lat="43.03119" lon="0.62003">
        <ele>462</ele>
        <time>2022-08-30T06:33:04Z</time>
      </trkpt>
      <trkpt lat="43.03122" lon="0.62009">
        <ele>462</ele>
        <time>2022-08-30T06:33:09Z</time>
      </trkpt>
      <trkpt lat="43.0313" lon="0.6204">
        <ele>463</ele>
        <time>2022-08-30T06:33:30Z</time>
      </trkpt>
      <trkpt lat="43.03132" lon="0.62063">
        <ele>463</ele>
        <time>2022-08-30T06:33:44Z</time>
      </trkpt>
      <trkpt lat="43.03136" lon="0.62069">
        <ele>464</ele>
        <time>2022-08-30T06:33:49Z</time>
      </trkpt>
      <trkpt lat="43.0314" lon="0.62073">
        <ele>464</ele>
        <time>2022-08-30T06:33:54Z</time>
      </trkpt>
      <trkpt lat="43.03146" lon="0.62109">
        <ele>465</ele>
        <time>2022-08-30T06:34:25Z</time>
      </trkpt>
      <trkpt lat="43.03149" lon="0.62114">
        <ele>465</ele>
        <time>2022-08-30T06:34:28Z</time>
      </trkpt>
      <trkpt lat="43.03152" lon="0.62127">
        <ele>465</ele>
        <time>2022-08-30T06:34:38Z</time>
      </trkpt>
      <trkpt lat="43.03155" lon="0.6214">
        <ele>466</ele>
        <time>2022-08-30T06:34:48Z</time>
      </trkpt>
      <trkpt lat="43.03163" lon="0.62157">
        <ele>466</ele>
        <time>2022-08-30T06:35:00Z</time>
      </trkpt>
      <trkpt lat="43.03163" lon="0.62162">
        <ele>467</ele>
        <time>2022-08-30T06:35:03Z</time>
      </trkpt>
      <trkpt lat="43.03179" lon="0.62168">
        <ele>468</ele>
        <time>2022-08-30T06:35:23Z</time>
      </trkpt>
      <trkpt lat="43.03188" lon="0.62166">
        <ele>468</ele>
        <time>2022-08-30T06:35:33Z</time>
      </trkpt>
      <trkpt lat="43.03214" lon="0.6217">
        <ele>470</ele>
        <time>2022-08-30T06:36:00Z</time>
      </trkpt>
      <trkpt lat="43.03219" lon="0.62169">
        <ele>470</ele>
        <time>2022-08-30T06:36:05Z</time>
      </trkpt>
      <trkpt lat="43.03224" lon="0.62169">
        <ele>470</ele>
        <time>2022-08-30T06:36:10Z</time>
      </trkpt>
      <trkpt lat="43.03229" lon="0.62178">
        <ele>471</ele>
        <time>2022-08-30T06:36:19Z</time>
      </trkpt>
      <trkpt lat="43.03234" lon="0.62184">
        <ele>471</ele>
        <time>2022-08-30T06:36:24Z</time>
      </trkpt>
      <trkpt lat="43.03246" lon="0.62191">
        <ele>472</ele>
        <time>2022-08-30T06:36:35Z</time>
      </trkpt>
      <trkpt lat="43.03251" lon="0.62183">
        <ele>473</ele>
        <time>2022-08-30T06:36:40Z</time>
      </trkpt>
      <trkpt lat="43.03257" lon="0.62168">
        <ele>474</ele>
        <time>2022-08-30T06:36:50Z</time>
      </trkpt>
      <trkpt lat="43.03271" lon="0.62158">
        <ele>474</ele>
        <time>2022-08-30T06:37:05Z</time>
      </trkpt>
      <trkpt lat="43.03276" lon="0.62156">
        <ele>474</ele>
        <time>2022-08-30T06:37:10Z</time>
      </trkpt>
      <trkpt lat="43.0328" lon="0.62154">
        <ele>474</ele>
        <time>2022-08-30T06:37:14Z</time>
      </trkpt>
      <trkpt lat="43.03285" lon="0.62156">
        <ele>475</ele>
        <time>2022-08-30T06:37:58Z</time>
      </trkpt>
      <trkpt lat="43.0329" lon="0.6215">
        <ele>474</ele>
        <time>2022-08-30T06:38:22Z</time>
      </trkpt>
      <trkpt lat="43.03295" lon="0.62151">
        <ele>474</ele>
        <time>2022-08-30T06:38:28Z</time>
      </trkpt>
      <trkpt lat="43.033" lon="0.6215">
        <ele>474</ele>
        <time>2022-08-30T06:38:34Z</time>
      </trkpt>
      <trkpt lat="43.03302" lon="0.62154">
        <ele>474</ele>
        <time>2022-08-30T06:38:40Z</time>
      </trkpt>
      <trkpt lat="43.03309" lon="0.62154">
        <ele>474</ele>
        <time>2022-08-30T06:38:58Z</time>
      </trkpt>
      <trkpt lat="43.03312" lon="0.62159">
        <ele>474</ele>
        <time>2022-08-30T06:39:22Z</time>
      </trkpt>
      <trkpt lat="43.03324" lon="0.62164">
        <ele>473</ele>
        <time>2022-08-30T06:39:36Z</time>
      </trkpt>
      <trkpt lat="43.03329" lon="0.62165">
        <ele>473</ele>
        <time>2022-08-30T06:39:40Z</time>
      </trkpt>
      <trkpt lat="43.03338" lon="0.62169">
        <ele>473</ele>
        <time>2022-08-30T06:39:46Z</time>
      </trkpt>
      <trkpt lat="43.0334" lon="0.62173">
        <ele>473</ele>
        <time>2022-08-30T06:39:50Z</time>
      </trkpt>
      <trkpt lat="43.03344" lon="0.62176">
        <ele>473</ele>
        <time>2022-08-30T06:39:54Z</time>
      </trkpt>
      <trkpt lat="43.03348" lon="0.62183">
        <ele>473</ele>
        <time>2022-08-30T06:40:02Z</time>
      </trkpt>
      <trkpt lat="43.0335" lon="0.62176">
        <ele>473</ele>
        <time>2022-08-30T06:40:26Z</time>
      </trkpt>
      <trkpt lat="43.03356" lon="0.62175">
        <ele>473</ele>
        <time>2022-08-30T06:40:30Z</time>
      </trkpt>
      <trkpt lat="43.03372" lon="0.6218">
        <ele>472</ele>
        <time>2022-08-30T06:40:45Z</time>
      </trkpt>
      <trkpt lat="43.03376" lon="0.62184">
        <ele>472</ele>
        <time>2022-08-30T06:40:48Z</time>
      </trkpt>
      <trkpt lat="43.03405" lon="0.62191">
        <ele>472</ele>
        <time>2022-08-30T06:41:15Z</time>
      </trkpt>
      <trkpt lat="43.03421" lon="0.62192">
        <ele>472</ele>
        <time>2022-08-30T06:41:31Z</time>
      </trkpt>
      <trkpt lat="43.03426" lon="0.62188">
        <ele>472</ele>
        <time>2022-08-30T06:41:47Z</time>
      </trkpt>
      <trkpt lat="43.03429" lon="0.62194">
        <ele>472</ele>
        <time>2022-08-30T06:42:06Z</time>
      </trkpt>
      <trkpt lat="43.03433" lon="0.62197">
        <ele>472</ele>
        <time>2022-08-30T06:42:11Z</time>
      </trkpt>
      <trkpt lat="43.03452" lon="0.62204">
        <ele>472</ele>
        <time>2022-08-30T06:42:28Z</time>
      </trkpt>
      <trkpt lat="43.03468" lon="0.62204">
        <ele>472</ele>
        <time>2022-08-30T06:42:41Z</time>
      </trkpt>
      <trkpt lat="43.03478" lon="0.62207">
        <ele>472</ele>
        <time>2022-08-30T06:42:51Z</time>
      </trkpt>
      <trkpt lat="43.03494" lon="0.62207">
        <ele>472</ele>
        <time>2022-08-30T06:43:06Z</time>
      </trkpt>
      <trkpt lat="43.03499" lon="0.62203">
        <ele>473</ele>
        <time>2022-08-30T06:43:11Z</time>
      </trkpt>
      <trkpt lat="43.03525" lon="0.62178">
        <ele>473</ele>
        <time>2022-08-30T06:43:37Z</time>
      </trkpt>
      <trkpt lat="43.03529" lon="0.62178">
        <ele>473</ele>
        <time>2022-08-30T06:43:40Z</time>
      </trkpt>
      <trkpt lat="43.03534" lon="0.62176">
        <ele>473</ele>
        <time>2022-08-30T06:43:44Z</time>
      </trkpt>
      <trkpt lat="43.03553" lon="0.62175">
        <ele>473</ele>
        <time>2022-08-30T06:43:59Z</time>
      </trkpt>
      <trkpt lat="43.03558" lon="0.62177">
        <ele>473</ele>
        <time>2022-08-30T06:44:03Z</time>
      </trkpt>
      <trkpt lat="43.03567" lon="0.62175">
        <ele>473</ele>
        <time>2022-08-30T06:44:11Z</time>
      </trkpt>
      <trkpt lat="43.03572" lon="0.62173">
        <ele>473</ele>
        <time>2022-08-30T06:44:15Z</time>
      </trkpt>
      <trkpt lat="43.03602" lon="0.62142">
        <ele>474</ele>
        <time>2022-08-30T06:44:47Z</time>
      </trkpt>
      <trkpt lat="43.03606" lon="0.62139">
        <ele>475</ele>
        <time>2022-08-30T06:44:51Z</time>
      </trkpt>
      <trkpt lat="43.03621" lon="0.62138">
        <ele>475</ele>
        <time>2022-08-30T06:45:03Z</time>
      </trkpt>
      <trkpt lat="43.0363" lon="0.62143">
        <ele>475</ele>
        <time>2022-08-30T06:45:11Z</time>
      </trkpt>
      <trkpt lat="43.03641" lon="0.62155">
        <ele>475</ele>
        <time>2022-08-30T06:45:24Z</time>
      </trkpt>
      <trkpt lat="43.03659" lon="0.62181">
        <ele>475</ele>
        <time>2022-08-30T06:45:46Z</time>
      </trkpt>
      <trkpt lat="43.03662" lon="0.62186">
        <ele>475</ele>
        <time>2022-08-30T06:45:50Z</time>
      </trkpt>
      <trkpt lat="43.03684" lon="0.62209">
        <ele>476</ele>
        <time>2022-08-30T06:46:17Z</time>
      </trkpt>
      <trkpt lat="43.03701" lon="0.62211">
        <ele>476</ele>
        <time>2022-08-30T06:46:31Z</time>
      </trkpt>
      <trkpt lat="43.03707" lon="0.62211">
        <ele>476</ele>
        <time>2022-08-30T06:46:35Z</time>
      </trkpt>
      <trkpt lat="43.03712" lon="0.62208">
        <ele>476</ele>
        <time>2022-08-30T06:46:39Z</time>
      </trkpt>
      <trkpt lat="43.03721" lon="0.62207">
        <ele>476</ele>
        <time>2022-08-30T06:46:47Z</time>
      </trkpt>
      <trkpt lat="43.03726" lon="0.62207">
        <ele>476</ele>
        <time>2022-08-30T06:46:52Z</time>
      </trkpt>
      <trkpt lat="43.03735" lon="0.62204">
        <ele>476</ele>
        <time>2022-08-30T06:47:03Z</time>
      </trkpt>
      <trkpt lat="43.03739" lon="0.62201">
        <ele>476</ele>
        <time>2022-08-30T06:47:07Z</time>
      </trkpt>
      <trkpt lat="43.03744" lon="0.62199">
        <ele>476</ele>
        <time>2022-08-30T06:47:12Z</time>
      </trkpt>
      <trkpt lat="43.03749" lon="0.62197">
        <ele>476</ele>
        <time>2022-08-30T06:47:16Z</time>
      </trkpt>
      <trkpt lat="43.03768" lon="0.62194">
        <ele>476</ele>
        <time>2022-08-30T06:47:31Z</time>
      </trkpt>
      <trkpt lat="43.03772" lon="0.62194">
        <ele>476</ele>
        <time>2022-08-30T06:47:34Z</time>
      </trkpt>
      <trkpt lat="43.03781" lon="0.62192">
        <ele>476</ele>
        <time>2022-08-30T06:47:41Z</time>
      </trkpt>
      <trkpt lat="43.03816" lon="0.62194">
        <ele>476</ele>
        <time>2022-08-30T06:48:13Z</time>
      </trkpt>
      <trkpt lat="43.03822" lon="0.62194">
        <ele>476</ele>
        <time>2022-08-30T06:48:17Z</time>
      </trkpt>
      <trkpt lat="43.03827" lon="0.62195">
        <ele>476</ele>
        <time>2022-08-30T06:48:22Z</time>
      </trkpt>
      <trkpt lat="43.03837" lon="0.62195">
        <ele>477</ele>
        <time>2022-08-30T06:48:30Z</time>
      </trkpt>
      <trkpt lat="43.03847" lon="0.62194">
        <ele>477</ele>
        <time>2022-08-30T06:48:41Z</time>
      </trkpt>
      <trkpt lat="43.03858" lon="0.62196">
        <ele>478</ele>
        <time>2022-08-30T06:48:50Z</time>
      </trkpt>
      <trkpt lat="43.03864" lon="0.62197">
        <ele>478</ele>
        <time>2022-08-30T06:48:55Z</time>
      </trkpt>
      <trkpt lat="43.03878" lon="0.62205">
        <ele>478</ele>
        <time>2022-08-30T06:49:07Z</time>
      </trkpt>
      <trkpt lat="43.03901" lon="0.62213">
        <ele>479</ele>
        <time>2022-08-30T06:49:29Z</time>
      </trkpt>
      <trkpt lat="43.03907" lon="0.62217">
        <ele>479</ele>
        <time>2022-08-30T06:49:34Z</time>
      </trkpt>
      <trkpt lat="43.03918" lon="0.6222">
        <ele>479</ele>
        <time>2022-08-30T06:49:43Z</time>
      </trkpt>
      <trkpt lat="43.03937" lon="0.62219">
        <ele>479</ele>
        <time>2022-08-30T06:49:58Z</time>
      </trkpt>
      <trkpt lat="43.03974" lon="0.62225">
        <ele>479</ele>
        <time>2022-08-30T06:50:32Z</time>
      </trkpt>
      <trkpt lat="43.0398" lon="0.62225">
        <ele>479</ele>
        <time>2022-08-30T06:50:36Z</time>
      </trkpt>
      <trkpt lat="43.03996" lon="0.62229">
        <ele>479</ele>
        <time>2022-08-30T06:50:51Z</time>
      </trkpt>
      <trkpt lat="43.04031" lon="0.62255">
        <ele>478</ele>
        <time>2022-08-30T06:51:22Z</time>
      </trkpt>
      <trkpt lat="43.04047" lon="0.62261">
        <ele>478</ele>
        <time>2022-08-30T06:51:36Z</time>
      </trkpt>
      <trkpt lat="43.0407" lon="0.62265">
        <ele>478</ele>
        <time>2022-08-30T06:51:54Z</time>
      </trkpt>
      <trkpt lat="43.04074" lon="0.62268">
        <ele>478</ele>
        <time>2022-08-30T06:51:58Z</time>
      </trkpt>
      <trkpt lat="43.04114" lon="0.62276">
        <ele>477</ele>
        <time>2022-08-30T06:52:31Z</time>
      </trkpt>
      <trkpt lat="43.04153" lon="0.62285">
        <ele>476</ele>
        <time>2022-08-30T06:53:04Z</time>
      </trkpt>
      <trkpt lat="43.04159" lon="0.62285">
        <ele>476</ele>
        <time>2022-08-30T06:53:08Z</time>
      </trkpt>
      <trkpt lat="43.04164" lon="0.62288">
        <ele>476</ele>
        <time>2022-08-30T06:53:13Z</time>
      </trkpt>
      <trkpt lat="43.04174" lon="0.62289">
        <ele>476</ele>
        <time>2022-08-30T06:53:21Z</time>
      </trkpt>
      <trkpt lat="43.04179" lon="0.62292">
        <ele>476</ele>
        <time>2022-08-30T06:53:25Z</time>
      </trkpt>
      <trkpt lat="43.04202" lon="0.62298">
        <ele>476</ele>
        <time>2022-08-30T06:53:44Z</time>
      </trkpt>
      <trkpt lat="43.04208" lon="0.62302">
        <ele>476</ele>
        <time>2022-08-30T06:53:49Z</time>
      </trkpt>
      <trkpt lat="43.04219" lon="0.62306">
        <ele>476</ele>
        <time>2022-08-30T06:53:58Z</time>
      </trkpt>
      <trkpt lat="43.04253" lon="0.62339">
        <ele>475</ele>
        <time>2022-08-30T06:54:32Z</time>
      </trkpt>
      <trkpt lat="43.04261" lon="0.62351">
        <ele>475</ele>
        <time>2022-08-30T06:54:40Z</time>
      </trkpt>
      <trkpt lat="43.04275" lon="0.62367">
        <ele>474</ele>
        <time>2022-08-30T06:54:56Z</time>
      </trkpt>
      <trkpt lat="43.04288" lon="0.62389">
        <ele>474</ele>
        <time>2022-08-30T06:55:10Z</time>
      </trkpt>
      <trkpt lat="43.04292" lon="0.62393">
        <ele>474</ele>
        <time>2022-08-30T06:55:14Z</time>
      </trkpt>
      <trkpt lat="43.04298" lon="0.62396">
        <ele>474</ele>
        <time>2022-08-30T06:55:19Z</time>
      </trkpt>
      <trkpt lat="43.04303" lon="0.62403">
        <ele>473</ele>
        <time>2022-08-30T06:55:25Z</time>
      </trkpt>
      <trkpt lat="43.04309" lon="0.62408">
        <ele>473</ele>
        <time>2022-08-30T06:55:30Z</time>
      </trkpt>
      <trkpt lat="43.04314" lon="0.62411">
        <ele>474</ele>
        <time>2022-08-30T06:56:26Z</time>
      </trkpt>
      <trkpt lat="43.0434" lon="0.62433">
        <ele>473</ele>
        <time>2022-08-30T06:56:57Z</time>
      </trkpt>
      <trkpt lat="43.04355" lon="0.62449">
        <ele>472</ele>
        <time>2022-08-30T06:57:12Z</time>
      </trkpt>
      <trkpt lat="43.04393" lon="0.62477">
        <ele>471</ele>
        <time>2022-08-30T06:57:45Z</time>
      </trkpt>
      <trkpt lat="43.04407" lon="0.6249">
        <ele>470</ele>
        <time>2022-08-30T06:57:58Z</time>
      </trkpt>
      <trkpt lat="43.04418" lon="0.62496">
        <ele>470</ele>
        <time>2022-08-30T06:58:06Z</time>
      </trkpt>
      <trkpt lat="43.04455" lon="0.62529">
        <ele>470</ele>
        <time>2022-08-30T06:58:40Z</time>
      </trkpt>
      <trkpt lat="43.04483" lon="0.62563">
        <ele>469</ele>
        <time>2022-08-30T06:59:10Z</time>
      </trkpt>
      <trkpt lat="43.04494" lon="0.62574">
        <ele>469</ele>
        <time>2022-08-30T06:59:20Z</time>
      </trkpt>
      <trkpt lat="43.04497" lon="0.62581">
        <ele>468</ele>
        <time>2022-08-30T06:59:25Z</time>
      </trkpt>
      <trkpt lat="43.04506" lon="0.62591">
        <ele>468</ele>
        <time>2022-08-30T06:59:40Z</time>
      </trkpt>
      <trkpt lat="43.0451" lon="0.62596">
        <ele>468</ele>
        <time>2022-08-30T06:59:45Z</time>
      </trkpt>
      <trkpt lat="43.04513" lon="0.62603">
        <ele>467</ele>
        <time>2022-08-30T06:59:50Z</time>
      </trkpt>
      <trkpt lat="43.0453" lon="0.62617">
        <ele>467</ele>
        <time>2022-08-30T07:00:04Z</time>
      </trkpt>
      <trkpt lat="43.04563" lon="0.6266">
        <ele>465</ele>
        <time>2022-08-30T07:00:38Z</time>
      </trkpt>
      <trkpt lat="43.04592" lon="0.62693">
        <ele>464</ele>
        <time>2022-08-30T07:01:09Z</time>
      </trkpt>
      <trkpt lat="43.04597" lon="0.62697">
        <ele>464</ele>
        <time>2022-08-30T07:01:14Z</time>
      </trkpt>
      <trkpt lat="43.04601" lon="0.62703">
        <ele>464</ele>
        <time>2022-08-30T07:01:19Z</time>
      </trkpt>
      <trkpt lat="43.04634" lon="0.62737">
        <ele>462</ele>
        <time>2022-08-30T07:01:51Z</time>
      </trkpt>
      <trkpt lat="43.04672" lon="0.6277">
        <ele>460</ele>
        <time>2022-08-30T07:02:25Z</time>
      </trkpt>
      <trkpt lat="43.04707" lon="0.62803">
        <ele>459</ele>
        <time>2022-08-30T07:03:00Z</time>
      </trkpt>
      <trkpt lat="43.04713" lon="0.62809">
        <ele>458</ele>
        <time>2022-08-30T07:03:05Z</time>
      </trkpt>
      <trkpt lat="43.04727" lon="0.62819">
        <ele>458</ele>
        <time>2022-08-30T07:03:17Z</time>
      </trkpt>
      <trkpt lat="43.04755" lon="0.62851">
        <ele>456</ele>
        <time>2022-08-30T07:03:46Z</time>
      </trkpt>
      <trkpt lat="43.04762" lon="0.62855">
        <ele>456</ele>
        <time>2022-08-30T07:03:51Z</time>
      </trkpt>
      <trkpt lat="43.04772" lon="0.62865">
        <ele>456</ele>
        <time>2022-08-30T07:04:02Z</time>
      </trkpt>
      <trkpt lat="43.04779" lon="0.62868">
        <ele>456</ele>
        <time>2022-08-30T07:04:15Z</time>
      </trkpt>
      <trkpt lat="43.04787" lon="0.62872">
        <ele>456</ele>
        <time>2022-08-30T07:04:57Z</time>
      </trkpt>
      <trkpt lat="43.04787" lon="0.62881">
        <ele>454</ele>
        <time>2022-08-30T07:06:09Z</time>
      </trkpt>
      <trkpt lat="43.04823" lon="0.6291">
        <ele>453</ele>
        <time>2022-08-30T07:06:42Z</time>
      </trkpt>
      <trkpt lat="43.04858" lon="0.6294">
        <ele>452</ele>
        <time>2022-08-30T07:07:14Z</time>
      </trkpt>
      <trkpt lat="43.04871" lon="0.62957">
        <ele>452</ele>
        <time>2022-08-30T07:07:29Z</time>
      </trkpt>
      <trkpt lat="43.04877" lon="0.62958">
        <ele>452</ele>
        <time>2022-08-30T07:07:35Z</time>
      </trkpt>
      <trkpt lat="43.04893" lon="0.62972">
        <ele>451</ele>
        <time>2022-08-30T07:07:50Z</time>
      </trkpt>
      <trkpt lat="43.04899" lon="0.62975">
        <ele>451</ele>
        <time>2022-08-30T07:07:55Z</time>
      </trkpt>
      <trkpt lat="43.04911" lon="0.62986">
        <ele>451</ele>
        <time>2022-08-30T07:08:07Z</time>
      </trkpt>
      <trkpt lat="43.04917" lon="0.62989">
        <ele>451</ele>
        <time>2022-08-30T07:08:11Z</time>
      </trkpt>
      <trkpt lat="43.04944" lon="0.63017">
        <ele>450</ele>
        <time>2022-08-30T07:08:36Z</time>
      </trkpt>
      <trkpt lat="43.0495" lon="0.63021">
        <ele>450</ele>
        <time>2022-08-30T07:08:40Z</time>
      </trkpt>
      <trkpt lat="43.0498" lon="0.63048">
        <ele>449</ele>
        <time>2022-08-30T07:09:08Z</time>
      </trkpt>
      <trkpt lat="43.05016" lon="0.63069">
        <ele>448</ele>
        <time>2022-08-30T07:09:39Z</time>
      </trkpt>
      <trkpt lat="43.05039" lon="0.63084">
        <ele>448</ele>
        <time>2022-08-30T07:10:00Z</time>
      </trkpt>
      <trkpt lat="43.05053" lon="0.63098">
        <ele>448</ele>
        <time>2022-08-30T07:10:15Z</time>
      </trkpt>
      <trkpt lat="43.05071" lon="0.63103">
        <ele>448</ele>
        <time>2022-08-30T07:10:32Z</time>
      </trkpt>
      <trkpt lat="43.05085" lon="0.63115">
        <ele>449</ele>
        <time>2022-08-30T07:10:45Z</time>
      </trkpt>
      <trkpt lat="43.05113" lon="0.63119">
        <ele>449</ele>
        <time>2022-08-30T07:11:12Z</time>
      </trkpt>
      <trkpt lat="43.05145" lon="0.63133">
        <ele>449</ele>
        <time>2022-08-30T07:11:38Z</time>
      </trkpt>
      <trkpt lat="43.0515" lon="0.63134">
        <ele>449</ele>
        <time>2022-08-30T07:11:42Z</time>
      </trkpt>
      <trkpt lat="43.0516" lon="0.63139">
        <ele>449</ele>
        <time>2022-08-30T07:11:51Z</time>
      </trkpt>
      <trkpt lat="43.05177" lon="0.63141">
        <ele>448</ele>
        <time>2022-08-30T07:12:04Z</time>
      </trkpt>
      <trkpt lat="43.05183" lon="0.63143">
        <ele>448</ele>
        <time>2022-08-30T07:12:08Z</time>
      </trkpt>
      <trkpt lat="43.05197" lon="0.63154">
        <ele>448</ele>
        <time>2022-08-30T07:12:21Z</time>
      </trkpt>
      <trkpt lat="43.05223" lon="0.63169">
        <ele>446</ele>
        <time>2022-08-30T07:12:43Z</time>
      </trkpt>
      <trkpt lat="43.05245" lon="0.63192">
        <ele>445</ele>
        <time>2022-08-30T07:13:05Z</time>
      </trkpt>
      <trkpt lat="43.05249" lon="0.63197">
        <ele>444</ele>
        <time>2022-08-30T07:13:09Z</time>
      </trkpt>
      <trkpt lat="43.05266" lon="0.63215">
        <ele>443</ele>
        <time>2022-08-30T07:13:27Z</time>
      </trkpt>
      <trkpt lat="43.05295" lon="0.63252">
        <ele>442</ele>
        <time>2022-08-30T07:13:59Z</time>
      </trkpt>
      <trkpt lat="43.05308" lon="0.63271">
        <ele>441</ele>
        <time>2022-08-30T07:14:14Z</time>
      </trkpt>
      <trkpt lat="43.05316" lon="0.63288">
        <ele>441</ele>
        <time>2022-08-30T07:14:26Z</time>
      </trkpt>
      <trkpt lat="43.05323" lon="0.63317">
        <ele>441</ele>
        <time>2022-08-30T07:14:52Z</time>
      </trkpt>
      <trkpt lat="43.05324" lon="0.63332">
        <ele>441</ele>
        <time>2022-08-30T07:15:01Z</time>
      </trkpt>
      <trkpt lat="43.05326" lon="0.6334">
        <ele>441</ele>
        <time>2022-08-30T07:15:06Z</time>
      </trkpt>
      <trkpt lat="43.05329" lon="0.63357">
        <ele>441</ele>
        <time>2022-08-30T07:15:16Z</time>
      </trkpt>
      <trkpt lat="43.05341" lon="0.63391">
        <ele>440</ele>
        <time>2022-08-30T07:15:38Z</time>
      </trkpt>
      <trkpt lat="43.05345" lon="0.63397">
        <ele>440</ele>
        <time>2022-08-30T07:15:42Z</time>
      </trkpt>
      <trkpt lat="43.05364" lon="0.63418">
        <ele>440</ele>
        <time>2022-08-30T07:16:01Z</time>
      </trkpt>
      <trkpt lat="43.05371" lon="0.63422">
        <ele>439</ele>
        <time>2022-08-30T07:16:11Z</time>
      </trkpt>
      <trkpt lat="43.05385" lon="0.63432">
        <ele>438</ele>
        <time>2022-08-30T07:16:22Z</time>
      </trkpt>
      <trkpt lat="43.05422" lon="0.63446">
        <ele>437</ele>
        <time>2022-08-30T07:16:54Z</time>
      </trkpt>
      <trkpt lat="43.05434" lon="0.6345">
        <ele>437</ele>
        <time>2022-08-30T07:17:04Z</time>
      </trkpt>
      <trkpt lat="43.05439" lon="0.6345">
        <ele>437</ele>
        <time>2022-08-30T07:17:08Z</time>
      </trkpt>
      <trkpt lat="43.0547" lon="0.63462">
        <ele>436</ele>
        <time>2022-08-30T07:17:32Z</time>
      </trkpt>
      <trkpt lat="43.05481" lon="0.63464">
        <ele>436</ele>
        <time>2022-08-30T07:17:40Z</time>
      </trkpt>
      <trkpt lat="43.05496" lon="0.63469">
        <ele>436</ele>
        <time>2022-08-30T07:17:53Z</time>
      </trkpt>
      <trkpt lat="43.05502" lon="0.63469">
        <ele>436</ele>
        <time>2022-08-30T07:17:58Z</time>
      </trkpt>
      <trkpt lat="43.05512" lon="0.63474">
        <ele>436</ele>
        <time>2022-08-30T07:18:06Z</time>
      </trkpt>
      <trkpt lat="43.05527" lon="0.63478">
        <ele>436</ele>
        <time>2022-08-30T07:18:18Z</time>
      </trkpt>
      <trkpt lat="43.05541" lon="0.63485">
        <ele>436</ele>
        <time>2022-08-30T07:18:31Z</time>
      </trkpt>
      <trkpt lat="43.05549" lon="0.63486">
        <ele>435</ele>
        <time>2022-08-30T07:18:51Z</time>
      </trkpt>
      <trkpt lat="43.05565" lon="0.63491">
        <ele>435</ele>
        <time>2022-08-30T07:19:03Z</time>
      </trkpt>
      <trkpt lat="43.0557" lon="0.63491">
        <ele>435</ele>
        <time>2022-08-30T07:19:07Z</time>
      </trkpt>
      <trkpt lat="43.0558" lon="0.63496">
        <ele>435</ele>
        <time>2022-08-30T07:19:15Z</time>
      </trkpt>
      <trkpt lat="43.05608" lon="0.63505">
        <ele>435</ele>
        <time>2022-08-30T07:19:39Z</time>
      </trkpt>
      <trkpt lat="43.05618" lon="0.63505">
        <ele>435</ele>
        <time>2022-08-30T07:19:47Z</time>
      </trkpt>
      <trkpt lat="43.05655" lon="0.63518">
        <ele>435</ele>
        <time>2022-08-30T07:20:23Z</time>
      </trkpt>
      <trkpt lat="43.05695" lon="0.63531">
        <ele>434</ele>
        <time>2022-08-30T07:20:57Z</time>
      </trkpt>
      <trkpt lat="43.05705" lon="0.63534">
        <ele>434</ele>
        <time>2022-08-30T07:21:06Z</time>
      </trkpt>
      <trkpt lat="43.05715" lon="0.63535">
        <ele>434</ele>
        <time>2022-08-30T07:21:14Z</time>
      </trkpt>
      <trkpt lat="43.0572" lon="0.63537">
        <ele>434</ele>
        <time>2022-08-30T07:21:17Z</time>
      </trkpt>
      <trkpt lat="43.0573" lon="0.63539">
        <ele>434</ele>
        <time>2022-08-30T07:21:24Z</time>
      </trkpt>
      <trkpt lat="43.05755" lon="0.63534">
        <ele>434</ele>
        <time>2022-08-30T07:21:45Z</time>
      </trkpt>
      <trkpt lat="43.0576" lon="0.63531">
        <ele>434</ele>
        <time>2022-08-30T07:21:50Z</time>
      </trkpt>
      <trkpt lat="43.0577" lon="0.63532">
        <ele>433</ele>
        <time>2022-08-30T07:21:58Z</time>
      </trkpt>
      <trkpt lat="43.05774" lon="0.63534">
        <ele>433</ele>
        <time>2022-08-30T07:22:06Z</time>
      </trkpt>
      <trkpt lat="43.05782" lon="0.63533">
        <ele>433</ele>
        <time>2022-08-30T07:22:17Z</time>
      </trkpt>
      <trkpt lat="43.05787" lon="0.63533">
        <ele>433</ele>
        <time>2022-08-30T07:22:22Z</time>
      </trkpt>
      <trkpt lat="43.05796" lon="0.63537">
        <ele>432</ele>
        <time>2022-08-30T07:22:32Z</time>
      </trkpt>
      <trkpt lat="43.05811" lon="0.63556">
        <ele>432</ele>
        <time>2022-08-30T07:22:47Z</time>
      </trkpt>
      <trkpt lat="43.05835" lon="0.63599">
        <ele>431</ele>
        <time>2022-08-30T07:23:19Z</time>
      </trkpt>
      <trkpt lat="43.05846" lon="0.63616">
        <ele>430</ele>
        <time>2022-08-30T07:23:35Z</time>
      </trkpt>
      <trkpt lat="43.05871" lon="0.63631">
        <ele>430</ele>
        <time>2022-08-30T07:23:59Z</time>
      </trkpt>
      <trkpt lat="43.05907" lon="0.63647">
        <ele>431</ele>
        <time>2022-08-30T07:24:30Z</time>
      </trkpt>
      <trkpt lat="43.05945" lon="0.63631">
        <ele>431</ele>
        <time>2022-08-30T07:25:01Z</time>
      </trkpt>
      <trkpt lat="43.05962" lon="0.63623">
        <ele>430</ele>
        <time>2022-08-30T07:25:15Z</time>
      </trkpt>
      <trkpt lat="43.05968" lon="0.63622">
        <ele>430</ele>
        <time>2022-08-30T07:25:21Z</time>
      </trkpt>
      <trkpt lat="43.05997" lon="0.63612">
        <ele>429</ele>
        <time>2022-08-30T07:25:43Z</time>
      </trkpt>
      <trkpt lat="43.06002" lon="0.63613">
        <ele>429</ele>
        <time>2022-08-30T07:25:47Z</time>
      </trkpt>
      <trkpt lat="43.06012" lon="0.6361">
        <ele>429</ele>
        <time>2022-08-30T07:25:56Z</time>
      </trkpt>
      <trkpt lat="43.06052" lon="0.63625">
        <ele>428</ele>
        <time>2022-08-30T07:26:27Z</time>
      </trkpt>
      <trkpt lat="43.06057" lon="0.63628">
        <ele>428</ele>
        <time>2022-08-30T07:26:31Z</time>
      </trkpt>
      <trkpt lat="43.06062" lon="0.63628">
        <ele>427</ele>
        <time>2022-08-30T07:26:36Z</time>
      </trkpt>
      <trkpt lat="43.06079" lon="0.63634">
        <ele>427</ele>
        <time>2022-08-30T07:26:50Z</time>
      </trkpt>
      <trkpt lat="43.06095" lon="0.63645">
        <ele>427</ele>
        <time>2022-08-30T07:27:01Z</time>
      </trkpt>
      <trkpt lat="43.06117" lon="0.63649">
        <ele>427</ele>
        <time>2022-08-30T07:27:23Z</time>
      </trkpt>
      <trkpt lat="43.06132" lon="0.63659">
        <ele>427</ele>
        <time>2022-08-30T07:27:35Z</time>
      </trkpt>
      <trkpt lat="43.06137" lon="0.63661">
        <ele>427</ele>
        <time>2022-08-30T07:27:40Z</time>
      </trkpt>
      <trkpt lat="43.06161" lon="0.63681">
        <ele>426</ele>
        <time>2022-08-30T07:28:00Z</time>
      </trkpt>
      <trkpt lat="43.06166" lon="0.63681">
        <ele>426</ele>
        <time>2022-08-30T07:28:33Z</time>
      </trkpt>
      <trkpt lat="43.06163" lon="0.63689">
        <ele>426</ele>
        <time>2022-08-30T07:29:45Z</time>
      </trkpt>
      <trkpt lat="43.0617" lon="0.63692">
        <ele>426</ele>
        <time>2022-08-30T07:30:08Z</time>
      </trkpt>
      <trkpt lat="43.06176" lon="0.6369">
        <ele>426</ele>
        <time>2022-08-30T07:30:13Z</time>
      </trkpt>
      <trkpt lat="43.06193" lon="0.63697">
        <ele>426</ele>
        <time>2022-08-30T07:30:28Z</time>
      </trkpt>
      <trkpt lat="43.06197" lon="0.63702">
        <ele>426</ele>
        <time>2022-08-30T07:30:37Z</time>
      </trkpt>
      <trkpt lat="43.06203" lon="0.63704">
        <ele>426</ele>
        <time>2022-08-30T07:30:43Z</time>
      </trkpt>
      <trkpt lat="43.06215" lon="0.63709">
        <ele>426</ele>
        <time>2022-08-30T07:30:54Z</time>
      </trkpt>
      <trkpt lat="43.06221" lon="0.63717">
        <ele>425</ele>
        <time>2022-08-30T07:31:05Z</time>
      </trkpt>
      <trkpt lat="43.06226" lon="0.63721">
        <ele>426</ele>
        <time>2022-08-30T07:31:09Z</time>
      </trkpt>
      <trkpt lat="43.06255" lon="0.63727">
        <ele>426</ele>
        <time>2022-08-30T07:31:30Z</time>
      </trkpt>
      <trkpt lat="43.06292" lon="0.63751">
        <ele>426</ele>
        <time>2022-08-30T07:32:02Z</time>
      </trkpt>
      <trkpt lat="43.06299" lon="0.63753">
        <ele>425</ele>
        <time>2022-08-30T07:32:11Z</time>
      </trkpt>
      <trkpt lat="43.06325" lon="0.63775">
        <ele>425</ele>
        <time>2022-08-30T07:32:32Z</time>
      </trkpt>
      <trkpt lat="43.06336" lon="0.63781">
        <ele>425</ele>
        <time>2022-08-30T07:32:43Z</time>
      </trkpt>
      <trkpt lat="43.06341" lon="0.63785">
        <ele>424</ele>
        <time>2022-08-30T07:32:47Z</time>
      </trkpt>
      <trkpt lat="43.06346" lon="0.63788">
        <ele>424</ele>
        <time>2022-08-30T07:32:52Z</time>
      </trkpt>
      <trkpt lat="43.06372" lon="0.63807">
        <ele>423</ele>
        <time>2022-08-30T07:33:15Z</time>
      </trkpt>
      <trkpt lat="43.06378" lon="0.63808">
        <ele>423</ele>
        <time>2022-08-30T07:33:20Z</time>
      </trkpt>
      <trkpt lat="43.06397" lon="0.63819">
        <ele>423</ele>
        <time>2022-08-30T07:33:37Z</time>
      </trkpt>
      <trkpt lat="43.06406" lon="0.63823">
        <ele>423</ele>
        <time>2022-08-30T07:33:45Z</time>
      </trkpt>
      <trkpt lat="43.06411" lon="0.63827">
        <ele>422</ele>
        <time>2022-08-30T07:33:50Z</time>
      </trkpt>
      <trkpt lat="43.06446" lon="0.63868">
        <ele>421</ele>
        <time>2022-08-30T07:34:23Z</time>
      </trkpt>
      <trkpt lat="43.06478" lon="0.63905">
        <ele>421</ele>
        <time>2022-08-30T07:34:56Z</time>
      </trkpt>
      <trkpt lat="43.06497" lon="0.63928">
        <ele>420</ele>
        <time>2022-08-30T07:35:17Z</time>
      </trkpt>
      <trkpt lat="43.06523" lon="0.63969">
        <ele>420</ele>
        <time>2022-08-30T07:35:48Z</time>
      </trkpt>
      <trkpt lat="43.06528" lon="0.63978">
        <ele>419</ele>
        <time>2022-08-30T07:35:56Z</time>
      </trkpt>
      <trkpt lat="43.06541" lon="0.63993">
        <ele>419</ele>
        <time>2022-08-30T07:36:09Z</time>
      </trkpt>
      <trkpt lat="43.06556" lon="0.64016">
        <ele>419</ele>
        <time>2022-08-30T07:36:27Z</time>
      </trkpt>
      <trkpt lat="43.06586" lon="0.64051">
        <ele>417</ele>
        <time>2022-08-30T07:36:59Z</time>
      </trkpt>
      <trkpt lat="43.06596" lon="0.64058">
        <ele>417</ele>
        <time>2022-08-30T07:37:08Z</time>
      </trkpt>
      <trkpt lat="43.06622" lon="0.64073">
        <ele>416</ele>
        <time>2022-08-30T07:37:30Z</time>
      </trkpt>
      <trkpt lat="43.06626" lon="0.64077">
        <ele>416</ele>
        <time>2022-08-30T07:37:33Z</time>
      </trkpt>
      <trkpt lat="43.06631" lon="0.64077">
        <ele>416</ele>
        <time>2022-08-30T07:37:37Z</time>
      </trkpt>
      <trkpt lat="43.0664" lon="0.64084">
        <ele>416</ele>
        <time>2022-08-30T07:37:45Z</time>
      </trkpt>
      <trkpt lat="43.06645" lon="0.64086">
        <ele>416</ele>
        <time>2022-08-30T07:37:50Z</time>
      </trkpt>
      <trkpt lat="43.06649" lon="0.64089">
        <ele>415</ele>
        <time>2022-08-30T07:37:54Z</time>
      </trkpt>
      <trkpt lat="43.06687" lon="0.64106">
        <ele>415</ele>
        <time>2022-08-30T07:38:26Z</time>
      </trkpt>
      <trkpt lat="43.06701" lon="0.64113">
        <ele>415</ele>
        <time>2022-08-30T07:38:37Z</time>
      </trkpt>
      <trkpt lat="43.06713" lon="0.64116">
        <ele>415</ele>
        <time>2022-08-30T07:38:47Z</time>
      </trkpt>
      <trkpt lat="43.06717" lon="0.64116">
        <ele>415</ele>
        <time>2022-08-30T07:38:51Z</time>
      </trkpt>
      <trkpt lat="43.06726" lon="0.64123">
        <ele>415</ele>
        <time>2022-08-30T07:39:00Z</time>
      </trkpt>
      <trkpt lat="43.0673" lon="0.64127">
        <ele>415</ele>
        <time>2022-08-30T07:39:03Z</time>
      </trkpt>
      <trkpt lat="43.06746" lon="0.64141">
        <ele>415</ele>
        <time>2022-08-30T07:39:19Z</time>
      </trkpt>
      <trkpt lat="43.06769" lon="0.64182">
        <ele>414</ele>
        <time>2022-08-30T07:39:51Z</time>
      </trkpt>
      <trkpt lat="43.06784" lon="0.64204">
        <ele>413</ele>
        <time>2022-08-30T07:40:08Z</time>
      </trkpt>
      <trkpt lat="43.06789" lon="0.64216">
        <ele>413</ele>
        <time>2022-08-30T07:40:15Z</time>
      </trkpt>
      <trkpt lat="43.06793" lon="0.64222">
        <ele>413</ele>
        <time>2022-08-30T07:40:19Z</time>
      </trkpt>
      <trkpt lat="43.06795" lon="0.64228">
        <ele>413</ele>
        <time>2022-08-30T07:40:23Z</time>
      </trkpt>
      <trkpt lat="43.06808" lon="0.64247">
        <ele>413</ele>
        <time>2022-08-30T07:40:37Z</time>
      </trkpt>
      <trkpt lat="43.06816" lon="0.64263">
        <ele>413</ele>
        <time>2022-08-30T07:40:49Z</time>
      </trkpt>
      <trkpt lat="43.0682" lon="0.64266">
        <ele>413</ele>
        <time>2022-08-30T07:40:53Z</time>
      </trkpt>
      <trkpt lat="43.06846" lon="0.64308">
        <ele>412</ele>
        <time>2022-08-30T07:41:26Z</time>
      </trkpt>
      <trkpt lat="43.06847" lon="0.64315">
        <ele>412</ele>
        <time>2022-08-30T07:41:30Z</time>
      </trkpt>
      <trkpt lat="43.06851" lon="0.64319">
        <ele>412</ele>
        <time>2022-08-30T07:41:34Z</time>
      </trkpt>
      <trkpt lat="43.06866" lon="0.64334">
        <ele>412</ele>
        <time>2022-08-30T07:41:50Z</time>
      </trkpt>
      <trkpt lat="43.06871" lon="0.64345">
        <ele>412</ele>
        <time>2022-08-30T07:41:58Z</time>
      </trkpt>
      <trkpt lat="43.06871" lon="0.64349">
        <ele>412</ele>
        <time>2022-08-30T07:43:18Z</time>
      </trkpt>
      <trkpt lat="43.06871" lon="0.64345">
        <ele>414</ele>
        <time>2022-08-30T07:54:33Z</time>
      </trkpt>
      <trkpt lat="43.06878" lon="0.64349">
        <ele>412</ele>
        <time>2022-08-30T07:59:32Z</time>
      </trkpt>
      <trkpt lat="43.06881" lon="0.64352">
        <ele>412</ele>
        <time>2022-08-30T07:59:42Z</time>
      </trkpt>
      <trkpt lat="43.06882" lon="0.64351">
        <ele>412</ele>
        <time>2022-08-30T08:00:12Z</time>
      </trkpt>
      <trkpt lat="43.06884" lon="0.64343">
        <ele>411</ele>
        <time>2022-08-30T08:00:37Z</time>
      </trkpt>
      <trkpt lat="43.0689" lon="0.64343">
        <ele>411</ele>
        <time>2022-08-30T08:00:43Z</time>
      </trkpt>
      <trkpt lat="43.06893" lon="0.64347">
        <ele>411</ele>
        <time>2022-08-30T08:00:47Z</time>
      </trkpt>
      <trkpt lat="43.06899" lon="0.64346">
        <ele>411</ele>
        <time>2022-08-30T08:01:19Z</time>
      </trkpt>
      <trkpt lat="43.06914" lon="0.64346">
        <ele>411</ele>
        <time>2022-08-30T08:01:35Z</time>
      </trkpt>
      <trkpt lat="43.06917" lon="0.64352">
        <ele>411</ele>
        <time>2022-08-30T08:01:39Z</time>
      </trkpt>
      <trkpt lat="43.06924" lon="0.6435">
        <ele>411</ele>
        <time>2022-08-30T08:02:05Z</time>
      </trkpt>
      <trkpt lat="43.06928" lon="0.64356">
        <ele>411</ele>
        <time>2022-08-30T08:02:08Z</time>
      </trkpt>
      <trkpt lat="43.06933" lon="0.64354">
        <ele>411</ele>
        <time>2022-08-30T08:02:22Z</time>
      </trkpt>
      <trkpt lat="43.06939" lon="0.64356">
        <ele>411</ele>
        <time>2022-08-30T08:02:29Z</time>
      </trkpt>
      <trkpt lat="43.06955" lon="0.64368">
        <ele>411</ele>
        <time>2022-08-30T08:02:50Z</time>
      </trkpt>
      <trkpt lat="43.0696" lon="0.64371">
        <ele>411</ele>
        <time>2022-08-30T08:02:54Z</time>
      </trkpt>
      <trkpt lat="43.06965" lon="0.64372">
        <ele>411</ele>
        <time>2022-08-30T08:02:58Z</time>
      </trkpt>
      <trkpt lat="43.06969" lon="0.64375">
        <ele>411</ele>
        <time>2022-08-30T08:03:01Z</time>
      </trkpt>
      <trkpt lat="43.06984" lon="0.64393">
        <ele>411</ele>
        <time>2022-08-30T08:03:16Z</time>
      </trkpt>
      <trkpt lat="43.06998" lon="0.64403">
        <ele>411</ele>
        <time>2022-08-30T08:03:31Z</time>
      </trkpt>
      <trkpt lat="43.07011" lon="0.64415">
        <ele>411</ele>
        <time>2022-08-30T08:03:43Z</time>
      </trkpt>
      <trkpt lat="43.0703" lon="0.64433">
        <ele>411</ele>
        <time>2022-08-30T08:04:01Z</time>
      </trkpt>
      <trkpt lat="43.07062" lon="0.6447">
        <ele>411</ele>
        <time>2022-08-30T08:04:33Z</time>
      </trkpt>
      <trkpt lat="43.0707" lon="0.64476">
        <ele>411</ele>
        <time>2022-08-30T08:04:41Z</time>
      </trkpt>
      <trkpt lat="43.07067" lon="0.64481">
        <ele>411</ele>
        <time>2022-08-30T08:04:54Z</time>
      </trkpt>
      <trkpt lat="43.07072" lon="0.64481">
        <ele>411</ele>
        <time>2022-08-30T08:05:02Z</time>
      </trkpt>
      <trkpt lat="43.07087" lon="0.64494">
        <ele>411</ele>
        <time>2022-08-30T08:05:18Z</time>
      </trkpt>
      <trkpt lat="43.0709" lon="0.645">
        <ele>411</ele>
        <time>2022-08-30T08:05:23Z</time>
      </trkpt>
      <trkpt lat="43.07101" lon="0.6451">
        <ele>411</ele>
        <time>2022-08-30T08:05:33Z</time>
      </trkpt>
      <trkpt lat="43.07102" lon="0.64516">
        <ele>411</ele>
        <time>2022-08-30T08:05:37Z</time>
      </trkpt>
      <trkpt lat="43.07112" lon="0.64523">
        <ele>411</ele>
        <time>2022-08-30T08:05:46Z</time>
      </trkpt>
      <trkpt lat="43.07116" lon="0.64528">
        <ele>411</ele>
        <time>2022-08-30T08:05:50Z</time>
      </trkpt>
      <trkpt lat="43.07147" lon="0.64557">
        <ele>411</ele>
        <time>2022-08-30T08:06:18Z</time>
      </trkpt>
      <trkpt lat="43.07149" lon="0.64563">
        <ele>411</ele>
        <time>2022-08-30T08:06:22Z</time>
      </trkpt>
      <trkpt lat="43.07162" lon="0.64571">
        <ele>411</ele>
        <time>2022-08-30T08:06:32Z</time>
      </trkpt>
      <trkpt lat="43.07175" lon="0.64595">
        <ele>411</ele>
        <time>2022-08-30T08:06:49Z</time>
      </trkpt>
      <trkpt lat="43.07177" lon="0.64601">
        <ele>411</ele>
        <time>2022-08-30T08:06:53Z</time>
      </trkpt>
      <trkpt lat="43.07186" lon="0.64609">
        <ele>410</ele>
        <time>2022-08-30T08:07:02Z</time>
      </trkpt>
      <trkpt lat="43.07189" lon="0.64617">
        <ele>410</ele>
        <time>2022-08-30T08:07:06Z</time>
      </trkpt>
      <trkpt lat="43.07202" lon="0.64629">
        <ele>410</ele>
        <time>2022-08-30T08:07:18Z</time>
      </trkpt>
      <trkpt lat="43.07205" lon="0.64635">
        <ele>410</ele>
        <time>2022-08-30T08:07:23Z</time>
      </trkpt>
      <trkpt lat="43.07232" lon="0.64668">
        <ele>410</ele>
        <time>2022-08-30T08:07:50Z</time>
      </trkpt>
      <trkpt lat="43.07234" lon="0.64674">
        <ele>409</ele>
        <time>2022-08-30T08:07:54Z</time>
      </trkpt>
      <trkpt lat="43.07236" lon="0.64682">
        <ele>409</ele>
        <time>2022-08-30T08:07:59Z</time>
      </trkpt>
      <trkpt lat="43.07257" lon="0.64721">
        <ele>409</ele>
        <time>2022-08-30T08:08:29Z</time>
      </trkpt>
      <trkpt lat="43.07261" lon="0.64726">
        <ele>409</ele>
        <time>2022-08-30T08:08:33Z</time>
      </trkpt>
      <trkpt lat="43.07267" lon="0.64741">
        <ele>409</ele>
        <time>2022-08-30T08:08:42Z</time>
      </trkpt>
      <trkpt lat="43.07274" lon="0.64753">
        <ele>409</ele>
        <time>2022-08-30T08:08:51Z</time>
      </trkpt>
      <trkpt lat="43.07278" lon="0.64766">
        <ele>409</ele>
        <time>2022-08-30T08:08:59Z</time>
      </trkpt>
      <trkpt lat="43.07287" lon="0.64783">
        <ele>409</ele>
        <time>2022-08-30T08:09:11Z</time>
      </trkpt>
      <trkpt lat="43.0729" lon="0.64795">
        <ele>409</ele>
        <time>2022-08-30T08:09:20Z</time>
      </trkpt>
      <trkpt lat="43.07298" lon="0.64811">
        <ele>408</ele>
        <time>2022-08-30T08:09:32Z</time>
      </trkpt>
      <trkpt lat="43.07306" lon="0.64836">
        <ele>408</ele>
        <time>2022-08-30T08:09:46Z</time>
      </trkpt>
      <trkpt lat="43.07311" lon="0.64847">
        <ele>408</ele>
        <time>2022-08-30T08:09:54Z</time>
      </trkpt>
      <trkpt lat="43.07313" lon="0.64853">
        <ele>408</ele>
        <time>2022-08-30T08:09:57Z</time>
      </trkpt>
      <trkpt lat="43.0732" lon="0.64868">
        <ele>408</ele>
        <time>2022-08-30T08:10:08Z</time>
      </trkpt>
      <trkpt lat="43.07338" lon="0.64908">
        <ele>407</ele>
        <time>2022-08-30T08:10:36Z</time>
      </trkpt>
      <trkpt lat="43.07362" lon="0.64947">
        <ele>406</ele>
        <time>2022-08-30T08:11:05Z</time>
      </trkpt>
      <trkpt lat="43.07367" lon="0.64951">
        <ele>406</ele>
        <time>2022-08-30T08:11:09Z</time>
      </trkpt>
      <trkpt lat="43.07372" lon="0.6496">
        <ele>406</ele>
        <time>2022-08-30T08:11:15Z</time>
      </trkpt>
      <trkpt lat="43.07376" lon="0.64964">
        <ele>406</ele>
        <time>2022-08-30T08:11:19Z</time>
      </trkpt>
      <trkpt lat="43.07399" lon="0.64997">
        <ele>406</ele>
        <time>2022-08-30T08:11:45Z</time>
      </trkpt>
      <trkpt lat="43.07404" lon="0.65001">
        <ele>405</ele>
        <time>2022-08-30T08:11:49Z</time>
      </trkpt>
      <trkpt lat="43.07406" lon="0.65006">
        <ele>406</ele>
        <time>2022-08-30T08:11:53Z</time>
      </trkpt>
      <trkpt lat="43.0741" lon="0.6501">
        <ele>406</ele>
        <time>2022-08-30T08:11:57Z</time>
      </trkpt>
      <trkpt lat="43.07413" lon="0.65015">
        <ele>406</ele>
        <time>2022-08-30T08:12:01Z</time>
      </trkpt>
      <trkpt lat="43.0743" lon="0.65062">
        <ele>406</ele>
        <time>2022-08-30T08:12:32Z</time>
      </trkpt>
      <trkpt lat="43.07443" lon="0.65101">
        <ele>406</ele>
        <time>2022-08-30T08:12:55Z</time>
      </trkpt>
      <trkpt lat="43.07445" lon="0.65115">
        <ele>406</ele>
        <time>2022-08-30T08:13:02Z</time>
      </trkpt>
      <trkpt lat="43.07447" lon="0.6512">
        <ele>406</ele>
        <time>2022-08-30T08:13:06Z</time>
      </trkpt>
      <trkpt lat="43.07461" lon="0.65175">
        <ele>406</ele>
        <time>2022-08-30T08:13:39Z</time>
      </trkpt>
      <trkpt lat="43.07475" lon="0.65229">
        <ele>406</ele>
        <time>2022-08-30T08:14:12Z</time>
      </trkpt>
      <trkpt lat="43.07475" lon="0.65236">
        <ele>406</ele>
        <time>2022-08-30T08:14:16Z</time>
      </trkpt>
      <trkpt lat="43.07488" lon="0.65288">
        <ele>406</ele>
        <time>2022-08-30T08:14:48Z</time>
      </trkpt>
      <trkpt lat="43.07489" lon="0.65293">
        <ele>405</ele>
        <time>2022-08-30T08:14:51Z</time>
      </trkpt>
      <trkpt lat="43.07496" lon="0.65327">
        <ele>405</ele>
        <time>2022-08-30T08:15:12Z</time>
      </trkpt>
      <trkpt lat="43.07499" lon="0.65334">
        <ele>405</ele>
        <time>2022-08-30T08:15:22Z</time>
      </trkpt>
      <trkpt lat="43.07501" lon="0.6534">
        <ele>405</ele>
        <time>2022-08-30T08:15:26Z</time>
      </trkpt>
      <trkpt lat="43.07503" lon="0.65353">
        <ele>405</ele>
        <time>2022-08-30T08:15:34Z</time>
      </trkpt>
      <trkpt lat="43.07506" lon="0.65367">
        <ele>404</ele>
        <time>2022-08-30T08:15:41Z</time>
      </trkpt>
      <trkpt lat="43.07507" lon="0.65373">
        <ele>404</ele>
        <time>2022-08-30T08:15:45Z</time>
      </trkpt>
      <trkpt lat="43.07512" lon="0.65389">
        <ele>404</ele>
        <time>2022-08-30T08:15:56Z</time>
      </trkpt>
      <trkpt lat="43.07514" lon="0.65402">
        <ele>404</ele>
        <time>2022-08-30T08:16:04Z</time>
      </trkpt>
      <trkpt lat="43.07516" lon="0.65408">
        <ele>404</ele>
        <time>2022-08-30T08:16:08Z</time>
      </trkpt>
      <trkpt lat="43.07521" lon="0.65427">
        <ele>404</ele>
        <time>2022-08-30T08:16:20Z</time>
      </trkpt>
      <trkpt lat="43.07524" lon="0.65434">
        <ele>404</ele>
        <time>2022-08-30T08:16:24Z</time>
      </trkpt>
      <trkpt lat="43.07526" lon="0.65446">
        <ele>405</ele>
        <time>2022-08-30T08:16:31Z</time>
      </trkpt>
      <trkpt lat="43.07531" lon="0.65458">
        <ele>405</ele>
        <time>2022-08-30T08:16:39Z</time>
      </trkpt>
      <trkpt lat="43.07535" lon="0.65477">
        <ele>405</ele>
        <time>2022-08-30T08:16:50Z</time>
      </trkpt>
      <trkpt lat="43.07537" lon="0.65482">
        <ele>405</ele>
        <time>2022-08-30T08:16:54Z</time>
      </trkpt>
      <trkpt lat="43.07539" lon="0.65495">
        <ele>405</ele>
        <time>2022-08-30T08:17:02Z</time>
      </trkpt>
      <trkpt lat="43.07552" lon="0.65547">
        <ele>404</ele>
        <time>2022-08-30T08:17:35Z</time>
      </trkpt>
      <trkpt lat="43.07564" lon="0.65599">
        <ele>405</ele>
        <time>2022-08-30T08:18:06Z</time>
      </trkpt>
      <trkpt lat="43.07565" lon="0.65605">
        <ele>405</ele>
        <time>2022-08-30T08:18:10Z</time>
      </trkpt>
      <trkpt lat="43.07566" lon="0.65612">
        <ele>405</ele>
        <time>2022-08-30T08:18:14Z</time>
      </trkpt>
      <trkpt lat="43.07576" lon="0.65646">
        <ele>404</ele>
        <time>2022-08-30T08:18:35Z</time>
      </trkpt>
      <trkpt lat="43.07578" lon="0.65667">
        <ele>405</ele>
        <time>2022-08-30T08:18:47Z</time>
      </trkpt>
      <trkpt lat="43.07581" lon="0.65679">
        <ele>405</ele>
        <time>2022-08-30T08:18:55Z</time>
      </trkpt>
      <trkpt lat="43.07583" lon="0.65685">
        <ele>405</ele>
        <time>2022-08-30T08:18:59Z</time>
      </trkpt>
      <trkpt lat="43.07583" lon="0.65691">
        <ele>405</ele>
        <time>2022-08-30T08:19:03Z</time>
      </trkpt>
      <trkpt lat="43.07601" lon="0.65742">
        <ele>405</ele>
        <time>2022-08-30T08:19:37Z</time>
      </trkpt>
      <trkpt lat="43.07615" lon="0.65775">
        <ele>405</ele>
        <time>2022-08-30T08:19:58Z</time>
      </trkpt>
      <trkpt lat="43.07643" lon="0.65822">
        <ele>404</ele>
        <time>2022-08-30T08:20:32Z</time>
      </trkpt>
      <trkpt lat="43.07653" lon="0.65837">
        <ele>404</ele>
        <time>2022-08-30T08:20:44Z</time>
      </trkpt>
      <trkpt lat="43.07655" lon="0.65843">
        <ele>404</ele>
        <time>2022-08-30T08:20:48Z</time>
      </trkpt>
      <trkpt lat="43.07663" lon="0.65855">
        <ele>403</ele>
        <time>2022-08-30T08:20:56Z</time>
      </trkpt>
      <trkpt lat="43.07666" lon="0.65868">
        <ele>403</ele>
        <time>2022-08-30T08:21:05Z</time>
      </trkpt>
      <trkpt lat="43.07686" lon="0.65906">
        <ele>403</ele>
        <time>2022-08-30T08:21:32Z</time>
      </trkpt>
      <trkpt lat="43.07706" lon="0.65956">
        <ele>403</ele>
        <time>2022-08-30T08:22:07Z</time>
      </trkpt>
      <trkpt lat="43.07713" lon="0.65974">
        <ele>403</ele>
        <time>2022-08-30T08:22:18Z</time>
      </trkpt>
      <trkpt lat="43.0773" lon="0.6602">
        <ele>403</ele>
        <time>2022-08-30T08:22:48Z</time>
      </trkpt>
      <trkpt lat="43.07733" lon="0.66026">
        <ele>403</ele>
        <time>2022-08-30T08:22:52Z</time>
      </trkpt>
      <trkpt lat="43.07737" lon="0.66037">
        <ele>403</ele>
        <time>2022-08-30T08:22:59Z</time>
      </trkpt>
      <trkpt lat="43.07753" lon="0.66069">
        <ele>403</ele>
        <time>2022-08-30T08:23:24Z</time>
      </trkpt>
      <trkpt lat="43.07764" lon="0.66097">
        <ele>402</ele>
        <time>2022-08-30T08:23:43Z</time>
      </trkpt>
      <trkpt lat="43.07771" lon="0.66106">
        <ele>402</ele>
        <time>2022-08-30T08:23:50Z</time>
      </trkpt>
      <trkpt lat="43.07773" lon="0.66114">
        <ele>402</ele>
        <time>2022-08-30T08:23:55Z</time>
      </trkpt>
      <trkpt lat="43.07787" lon="0.6614">
        <ele>402</ele>
        <time>2022-08-30T08:24:13Z</time>
      </trkpt>
      <trkpt lat="43.07795" lon="0.66162">
        <ele>401</ele>
        <time>2022-08-30T08:24:28Z</time>
      </trkpt>
      <trkpt lat="43.07806" lon="0.66181">
        <ele>401</ele>
        <time>2022-08-30T08:24:41Z</time>
      </trkpt>
      <trkpt lat="43.07807" lon="0.66187">
        <ele>401</ele>
        <time>2022-08-30T08:24:45Z</time>
      </trkpt>
      <trkpt lat="43.07813" lon="0.66198">
        <ele>401</ele>
        <time>2022-08-30T08:24:53Z</time>
      </trkpt>
      <trkpt lat="43.07816" lon="0.66202">
        <ele>401</ele>
        <time>2022-08-30T08:24:57Z</time>
      </trkpt>
      <trkpt lat="43.0782" lon="0.66213">
        <ele>401</ele>
        <time>2022-08-30T08:25:05Z</time>
      </trkpt>
      <trkpt lat="43.0783" lon="0.66223">
        <ele>400</ele>
        <time>2022-08-30T08:25:16Z</time>
      </trkpt>
      <trkpt lat="43.07837" lon="0.6624">
        <ele>400</ele>
        <time>2022-08-30T08:25:25Z</time>
      </trkpt>
      <trkpt lat="43.07853" lon="0.66268">
        <ele>401</ele>
        <time>2022-08-30T08:25:49Z</time>
      </trkpt>
      <trkpt lat="43.07858" lon="0.66272">
        <ele>401</ele>
        <time>2022-08-30T08:25:53Z</time>
      </trkpt>
      <trkpt lat="43.07862" lon="0.66277">
        <ele>401</ele>
        <time>2022-08-30T08:25:57Z</time>
      </trkpt>
      <trkpt lat="43.07865" lon="0.66284">
        <ele>401</ele>
        <time>2022-08-30T08:26:01Z</time>
      </trkpt>
      <trkpt lat="43.07866" lon="0.66291">
        <ele>401</ele>
        <time>2022-08-30T08:26:05Z</time>
      </trkpt>
      <trkpt lat="43.07868" lon="0.66298">
        <ele>401</ele>
        <time>2022-08-30T08:26:09Z</time>
      </trkpt>
      <trkpt lat="43.07872" lon="0.66312">
        <ele>401</ele>
        <time>2022-08-30T08:26:18Z</time>
      </trkpt>
      <trkpt lat="43.07888" lon="0.6634">
        <ele>401</ele>
        <time>2022-08-30T08:26:38Z</time>
      </trkpt>
      <trkpt lat="43.07893" lon="0.66343">
        <ele>401</ele>
        <time>2022-08-30T08:26:42Z</time>
      </trkpt>
      <trkpt lat="43.07897" lon="0.66348">
        <ele>401</ele>
        <time>2022-08-30T08:26:46Z</time>
      </trkpt>
      <trkpt lat="43.079" lon="0.66354">
        <ele>401</ele>
        <time>2022-08-30T08:26:50Z</time>
      </trkpt>
      <trkpt lat="43.07904" lon="0.66369">
        <ele>401</ele>
        <time>2022-08-30T08:26:59Z</time>
      </trkpt>
      <trkpt lat="43.07909" lon="0.66382">
        <ele>401</ele>
        <time>2022-08-30T08:27:08Z</time>
      </trkpt>
      <trkpt lat="43.07917" lon="0.66409">
        <ele>401</ele>
        <time>2022-08-30T08:27:26Z</time>
      </trkpt>
      <trkpt lat="43.07933" lon="0.66455">
        <ele>401</ele>
        <time>2022-08-30T08:27:59Z</time>
      </trkpt>
      <trkpt lat="43.07935" lon="0.66461">
        <ele>401</ele>
        <time>2022-08-30T08:28:04Z</time>
      </trkpt>
      <trkpt lat="43.07935" lon="0.66469">
        <ele>400</ele>
        <time>2022-08-30T08:28:14Z</time>
      </trkpt>
      <trkpt lat="43.0794" lon="0.66481">
        <ele>400</ele>
        <time>2022-08-30T08:29:00Z</time>
      </trkpt>
      <trkpt lat="43.07956" lon="0.66526">
        <ele>399</ele>
        <time>2022-08-30T08:29:30Z</time>
      </trkpt>
      <trkpt lat="43.07963" lon="0.66544">
        <ele>399</ele>
        <time>2022-08-30T08:29:44Z</time>
      </trkpt>
      <trkpt lat="43.0798" lon="0.66587">
        <ele>399</ele>
        <time>2022-08-30T08:30:13Z</time>
      </trkpt>
      <trkpt lat="43.0798" lon="0.66595">
        <ele>399</ele>
        <time>2022-08-30T08:30:18Z</time>
      </trkpt>
      <trkpt lat="43.07986" lon="0.66607">
        <ele>399</ele>
        <time>2022-08-30T08:30:27Z</time>
      </trkpt>
      <trkpt lat="43.07996" lon="0.66627">
        <ele>399</ele>
        <time>2022-08-30T08:30:42Z</time>
      </trkpt>
      <trkpt lat="43.08" lon="0.6664">
        <ele>398</ele>
        <time>2022-08-30T08:30:50Z</time>
      </trkpt>
      <trkpt lat="43.08007" lon="0.66651">
        <ele>398</ele>
        <time>2022-08-30T08:31:00Z</time>
      </trkpt>
      <trkpt lat="43.08012" lon="0.66658">
        <ele>398</ele>
        <time>2022-08-30T08:31:08Z</time>
      </trkpt>
      <trkpt lat="43.0802" lon="0.66674">
        <ele>398</ele>
        <time>2022-08-30T08:31:18Z</time>
      </trkpt>
      <trkpt lat="43.08022" lon="0.66681">
        <ele>398</ele>
        <time>2022-08-30T08:31:22Z</time>
      </trkpt>
      <trkpt lat="43.08025" lon="0.66689">
        <ele>398</ele>
        <time>2022-08-30T08:31:28Z</time>
      </trkpt>
      <trkpt lat="43.08023" lon="0.66693">
        <ele>399</ele>
        <time>2022-08-30T08:32:36Z</time>
      </trkpt>
      <trkpt lat="43.08024" lon="0.66691">
        <ele>398</ele>
        <time>2022-08-30T08:33:35Z</time>
      </trkpt>
      <trkpt lat="43.08031" lon="0.66709">
        <ele>398</ele>
        <time>2022-08-30T08:33:50Z</time>
      </trkpt>
      <trkpt lat="43.08033" lon="0.66724">
        <ele>398</ele>
        <time>2022-08-30T08:33:57Z</time>
      </trkpt>
      <trkpt lat="43.08033" lon="0.66731">
        <ele>398</ele>
        <time>2022-08-30T08:34:01Z</time>
      </trkpt>
      <trkpt lat="43.08038" lon="0.66753">
        <ele>399</ele>
        <time>2022-08-30T08:34:16Z</time>
      </trkpt>
      <trkpt lat="43.08038" lon="0.6676">
        <ele>399</ele>
        <time>2022-08-30T08:34:20Z</time>
      </trkpt>
      <trkpt lat="43.0804" lon="0.66768">
        <ele>398</ele>
        <time>2022-08-30T08:34:25Z</time>
      </trkpt>
      <trkpt lat="43.0804" lon="0.66776">
        <ele>398</ele>
        <time>2022-08-30T08:34:29Z</time>
      </trkpt>
      <trkpt lat="43.08041" lon="0.66783">
        <ele>398</ele>
        <time>2022-08-30T08:34:33Z</time>
      </trkpt>
      <trkpt lat="43.08041" lon="0.66794">
        <ele>398</ele>
        <time>2022-08-30T08:34:38Z</time>
      </trkpt>
      <trkpt lat="43.08046" lon="0.6684">
        <ele>397</ele>
        <time>2022-08-30T08:35:07Z</time>
      </trkpt>
      <trkpt lat="43.08046" lon="0.66848">
        <ele>397</ele>
        <time>2022-08-30T08:35:12Z</time>
      </trkpt>
      <trkpt lat="43.08049" lon="0.66855">
        <ele>397</ele>
        <time>2022-08-30T08:35:16Z</time>
      </trkpt>
      <trkpt lat="43.08048" lon="0.66869">
        <ele>396</ele>
        <time>2022-08-30T08:35:24Z</time>
      </trkpt>
      <trkpt lat="43.08051" lon="0.66882">
        <ele>396</ele>
        <time>2022-08-30T08:35:36Z</time>
      </trkpt>
      <trkpt lat="43.08065" lon="0.66931">
        <ele>393</ele>
        <time>2022-08-30T08:36:07Z</time>
      </trkpt>
      <trkpt lat="43.08066" lon="0.66937">
        <ele>393</ele>
        <time>2022-08-30T08:36:11Z</time>
      </trkpt>
      <trkpt lat="43.08068" lon="0.66959">
        <ele>392</ele>
        <time>2022-08-30T08:36:25Z</time>
      </trkpt>
      <trkpt lat="43.08067" lon="0.66967">
        <ele>392</ele>
        <time>2022-08-30T08:36:31Z</time>
      </trkpt>
      <trkpt lat="43.08068" lon="0.66968">
        <ele>392</ele>
        <time>2022-08-30T08:37:18Z</time>
      </trkpt>
      <trkpt lat="43.08074" lon="0.66982">
        <ele>392</ele>
        <time>2022-08-30T08:37:27Z</time>
      </trkpt>
      <trkpt lat="43.08079" lon="0.67018">
        <ele>392</ele>
        <time>2022-08-30T08:37:51Z</time>
      </trkpt>
      <trkpt lat="43.08088" lon="0.67049">
        <ele>392</ele>
        <time>2022-08-30T08:38:20Z</time>
      </trkpt>
      <trkpt lat="43.08088" lon="0.67066">
        <ele>392</ele>
        <time>2022-08-30T08:38:30Z</time>
      </trkpt>
      <trkpt lat="43.08092" lon="0.67082">
        <ele>392</ele>
        <time>2022-08-30T08:38:40Z</time>
      </trkpt>
      <trkpt lat="43.08094" lon="0.67117">
        <ele>392</ele>
        <time>2022-08-30T08:39:01Z</time>
      </trkpt>
      <trkpt lat="43.08095" lon="0.67123">
        <ele>392</ele>
        <time>2022-08-30T08:39:05Z</time>
      </trkpt>
      <trkpt lat="43.08095" lon="0.6713">
        <ele>392</ele>
        <time>2022-08-30T08:39:10Z</time>
      </trkpt>
      <trkpt lat="43.08102" lon="0.6716">
        <ele>391</ele>
        <time>2022-08-30T08:39:32Z</time>
      </trkpt>
      <trkpt lat="43.08105" lon="0.67166">
        <ele>391</ele>
        <time>2022-08-30T08:39:36Z</time>
      </trkpt>
      <trkpt lat="43.08106" lon="0.67174">
        <ele>391</ele>
        <time>2022-08-30T08:39:40Z</time>
      </trkpt>
      <trkpt lat="43.08105" lon="0.67181">
        <ele>391</ele>
        <time>2022-08-30T08:39:45Z</time>
      </trkpt>
      <trkpt lat="43.08109" lon="0.67187">
        <ele>391</ele>
        <time>2022-08-30T08:39:53Z</time>
      </trkpt>
      <trkpt lat="43.08114" lon="0.67196">
        <ele>391</ele>
        <time>2022-08-30T08:40:11Z</time>
      </trkpt>
      <trkpt lat="43.08108" lon="0.672">
        <ele>391</ele>
        <time>2022-08-30T08:40:36Z</time>
      </trkpt>
      <trkpt lat="43.08113" lon="0.672">
        <ele>391</ele>
        <time>2022-08-30T08:41:29Z</time>
      </trkpt>
      <trkpt lat="43.08124" lon="0.67218">
        <ele>391</ele>
        <time>2022-08-30T08:41:43Z</time>
      </trkpt>
      <trkpt lat="43.08137" lon="0.67263">
        <ele>391</ele>
        <time>2022-08-30T08:42:13Z</time>
      </trkpt>
      <trkpt lat="43.08138" lon="0.67271">
        <ele>391</ele>
        <time>2022-08-30T08:42:17Z</time>
      </trkpt>
      <trkpt lat="43.08151" lon="0.67304">
        <ele>391</ele>
        <time>2022-08-30T08:42:40Z</time>
      </trkpt>
      <trkpt lat="43.08162" lon="0.67353">
        <ele>390</ele>
        <time>2022-08-30T08:43:07Z</time>
      </trkpt>
      <trkpt lat="43.08167" lon="0.67365">
        <ele>390</ele>
        <time>2022-08-30T08:43:16Z</time>
      </trkpt>
      <trkpt lat="43.08171" lon="0.67371">
        <ele>390</ele>
        <time>2022-08-30T08:43:21Z</time>
      </trkpt>
      <trkpt lat="43.08187" lon="0.67424">
        <ele>389</ele>
        <time>2022-08-30T08:43:53Z</time>
      </trkpt>
      <trkpt lat="43.082" lon="0.67474">
        <ele>389</ele>
        <time>2022-08-30T08:44:25Z</time>
      </trkpt>
      <trkpt lat="43.0821" lon="0.67509">
        <ele>389</ele>
        <time>2022-08-30T08:44:47Z</time>
      </trkpt>
      <trkpt lat="43.08214" lon="0.67514">
        <ele>388</ele>
        <time>2022-08-30T08:44:51Z</time>
      </trkpt>
      <trkpt lat="43.0823" lon="0.67565">
        <ele>388</ele>
        <time>2022-08-30T08:45:25Z</time>
      </trkpt>
      <trkpt lat="43.08241" lon="0.67596">
        <ele>388</ele>
        <time>2022-08-30T08:45:48Z</time>
      </trkpt>
      <trkpt lat="43.08247" lon="0.67631">
        <ele>388</ele>
        <time>2022-08-30T08:46:09Z</time>
      </trkpt>
      <trkpt lat="43.08249" lon="0.67637">
        <ele>388</ele>
        <time>2022-08-30T08:46:14Z</time>
      </trkpt>
      <trkpt lat="43.0825" lon="0.67644">
        <ele>388</ele>
        <time>2022-08-30T08:46:18Z</time>
      </trkpt>
      <trkpt lat="43.08255" lon="0.6765">
        <ele>388</ele>
        <time>2022-08-30T08:46:29Z</time>
      </trkpt>
      <trkpt lat="43.08259" lon="0.67653">
        <ele>387</ele>
        <time>2022-08-30T08:46:53Z</time>
      </trkpt>
      <trkpt lat="43.0826" lon="0.67659">
        <ele>387</ele>
        <time>2022-08-30T08:46:57Z</time>
      </trkpt>
      <trkpt lat="43.0826" lon="0.67666">
        <ele>387</ele>
        <time>2022-08-30T08:47:04Z</time>
      </trkpt>
      <trkpt lat="43.0826" lon="0.67673">
        <ele>387</ele>
        <time>2022-08-30T08:47:11Z</time>
      </trkpt>
      <trkpt lat="43.08263" lon="0.6768">
        <ele>386</ele>
        <time>2022-08-30T08:47:35Z</time>
      </trkpt>
      <trkpt lat="43.0828" lon="0.67734">
        <ele>385</ele>
        <time>2022-08-30T08:48:08Z</time>
      </trkpt>
      <trkpt lat="43.08294" lon="0.67785">
        <ele>385</ele>
        <time>2022-08-30T08:48:39Z</time>
      </trkpt>
      <trkpt lat="43.08306" lon="0.67838">
        <ele>385</ele>
        <time>2022-08-30T08:49:12Z</time>
      </trkpt>
      <trkpt lat="43.08324" lon="0.67893">
        <ele>385</ele>
        <time>2022-08-30T08:49:45Z</time>
      </trkpt>
      <trkpt lat="43.08338" lon="0.67943">
        <ele>385</ele>
        <time>2022-08-30T08:50:16Z</time>
      </trkpt>
      <trkpt lat="43.0835" lon="0.67992">
        <ele>385</ele>
        <time>2022-08-30T08:50:47Z</time>
      </trkpt>
      <trkpt lat="43.08352" lon="0.67999">
        <ele>385</ele>
        <time>2022-08-30T08:50:51Z</time>
      </trkpt>
      <trkpt lat="43.08354" lon="0.68004">
        <ele>385</ele>
        <time>2022-08-30T08:50:55Z</time>
      </trkpt>
      <trkpt lat="43.08363" lon="0.68044">
        <ele>385</ele>
        <time>2022-08-30T08:51:19Z</time>
      </trkpt>
      <trkpt lat="43.08367" lon="0.6805">
        <ele>385</ele>
        <time>2022-08-30T08:51:23Z</time>
      </trkpt>
      <trkpt lat="43.08372" lon="0.68067">
        <ele>385</ele>
        <time>2022-08-30T08:51:35Z</time>
      </trkpt>
      <trkpt lat="43.0838" lon="0.68087">
        <ele>385</ele>
        <time>2022-08-30T08:51:49Z</time>
      </trkpt>
      <trkpt lat="43.08384" lon="0.68092">
        <ele>385</ele>
        <time>2022-08-30T08:51:53Z</time>
      </trkpt>
      <trkpt lat="43.0839" lon="0.68103">
        <ele>385</ele>
        <time>2022-08-30T08:52:01Z</time>
      </trkpt>
      <trkpt lat="43.08397" lon="0.68109">
        <ele>385</ele>
        <time>2022-08-30T08:52:08Z</time>
      </trkpt>
      <trkpt lat="43.08432" lon="0.68139">
        <ele>385</ele>
        <time>2022-08-30T08:52:42Z</time>
      </trkpt>
      <trkpt lat="43.0844" lon="0.68146">
        <ele>385</ele>
        <time>2022-08-30T08:52:49Z</time>
      </trkpt>
      <trkpt lat="43.08461" lon="0.68159">
        <ele>385</ele>
        <time>2022-08-30T08:53:07Z</time>
      </trkpt>
      <trkpt lat="43.08477" lon="0.68178">
        <ele>384</ele>
        <time>2022-08-30T08:53:24Z</time>
      </trkpt>
      <trkpt lat="43.08485" lon="0.68185">
        <ele>384</ele>
        <time>2022-08-30T08:53:32Z</time>
      </trkpt>
      <trkpt lat="43.0849" lon="0.68186">
        <ele>384</ele>
        <time>2022-08-30T08:53:37Z</time>
      </trkpt>
      <trkpt lat="43.08498" lon="0.68195">
        <ele>384</ele>
        <time>2022-08-30T08:53:45Z</time>
      </trkpt>
      <trkpt lat="43.08526" lon="0.68218">
        <ele>384</ele>
        <time>2022-08-30T08:54:11Z</time>
      </trkpt>
      <trkpt lat="43.0853" lon="0.68219">
        <ele>384</ele>
        <time>2022-08-30T08:54:14Z</time>
      </trkpt>
      <trkpt lat="43.08562" lon="0.68249">
        <ele>384</ele>
        <time>2022-08-30T08:54:46Z</time>
      </trkpt>
      <trkpt lat="43.08592" lon="0.68274">
        <ele>384</ele>
        <time>2022-08-30T08:55:12Z</time>
      </trkpt>
      <trkpt lat="43.08596" lon="0.68279">
        <ele>384</ele>
        <time>2022-08-30T08:55:16Z</time>
      </trkpt>
      <trkpt lat="43.086" lon="0.68281">
        <ele>384</ele>
        <time>2022-08-30T08:55:19Z</time>
      </trkpt>
      <trkpt lat="43.08631" lon="0.68317">
        <ele>385</ele>
        <time>2022-08-30T08:55:54Z</time>
      </trkpt>
      <trkpt lat="43.08647" lon="0.68335">
        <ele>385</ele>
        <time>2022-08-30T08:56:10Z</time>
      </trkpt>
      <trkpt lat="43.0865" lon="0.68341">
        <ele>385</ele>
        <time>2022-08-30T08:56:30Z</time>
      </trkpt>
      <trkpt lat="43.08656" lon="0.68342">
        <ele>384</ele>
        <time>2022-08-30T08:57:24Z</time>
      </trkpt>
      <trkpt lat="43.08689" lon="0.68377">
        <ele>383</ele>
        <time>2022-08-30T08:57:57Z</time>
      </trkpt>
      <trkpt lat="43.08698" lon="0.68388">
        <ele>383</ele>
        <time>2022-08-30T08:58:07Z</time>
      </trkpt>
      <trkpt lat="43.08725" lon="0.68416">
        <ele>383</ele>
        <time>2022-08-30T08:58:32Z</time>
      </trkpt>
      <trkpt lat="43.08731" lon="0.68422">
        <ele>383</ele>
        <time>2022-08-30T08:58:46Z</time>
      </trkpt>
      <trkpt lat="43.08762" lon="0.68454">
        <ele>383</ele>
        <time>2022-08-30T08:59:17Z</time>
      </trkpt>
      <trkpt lat="43.08794" lon="0.68488">
        <ele>383</ele>
        <time>2022-08-30T08:59:48Z</time>
      </trkpt>
      <trkpt lat="43.08824" lon="0.68518">
        <ele>382</ele>
        <time>2022-08-30T09:00:25Z</time>
      </trkpt>
      <trkpt lat="43.08855" lon="0.68552">
        <ele>382</ele>
        <time>2022-08-30T09:00:56Z</time>
      </trkpt>
      <trkpt lat="43.08887" lon="0.68585">
        <ele>382</ele>
        <time>2022-08-30T09:01:27Z</time>
      </trkpt>
      <trkpt lat="43.08917" lon="0.68617">
        <ele>381</ele>
        <time>2022-08-30T09:01:58Z</time>
      </trkpt>
      <trkpt lat="43.08945" lon="0.68647">
        <ele>381</ele>
        <time>2022-08-30T09:02:28Z</time>
      </trkpt>
      <trkpt lat="43.08948" lon="0.68649">
        <ele>381</ele>
        <time>2022-08-30T09:02:31Z</time>
      </trkpt>
      <trkpt lat="43.08954" lon="0.68657">
        <ele>381</ele>
        <time>2022-08-30T09:02:37Z</time>
      </trkpt>
      <trkpt lat="43.08959" lon="0.6866">
        <ele>381</ele>
        <time>2022-08-30T09:02:41Z</time>
      </trkpt>
      <trkpt lat="43.08986" lon="0.68699">
        <ele>380</ele>
        <time>2022-08-30T09:03:11Z</time>
      </trkpt>
      <trkpt lat="43.08989" lon="0.6871">
        <ele>380</ele>
        <time>2022-08-30T09:03:18Z</time>
      </trkpt>
      <trkpt lat="43.08995" lon="0.68767">
        <ele>379</ele>
        <time>2022-08-30T09:03:51Z</time>
      </trkpt>
      <trkpt lat="43.08998" lon="0.68822">
        <ele>379</ele>
        <time>2022-08-30T09:04:22Z</time>
      </trkpt>
      <trkpt lat="43.09" lon="0.68856">
        <ele>379</ele>
        <time>2022-08-30T09:04:42Z</time>
      </trkpt>
      <trkpt lat="43.09001" lon="0.68868">
        <ele>379</ele>
        <time>2022-08-30T09:04:53Z</time>
      </trkpt>
      <trkpt lat="43.09002" lon="0.68882">
        <ele>379</ele>
        <time>2022-08-30T09:05:01Z</time>
      </trkpt>
      <trkpt lat="43.09004" lon="0.68888">
        <ele>379</ele>
        <time>2022-08-30T09:05:04Z</time>
      </trkpt>
      <trkpt lat="43.09003" lon="0.68913">
        <ele>379</ele>
        <time>2022-08-30T09:05:19Z</time>
      </trkpt>
      <trkpt lat="43.09004" lon="0.68921">
        <ele>379</ele>
        <time>2022-08-30T09:05:23Z</time>
      </trkpt>
      <trkpt lat="43.09003" lon="0.68927">
        <ele>379</ele>
        <time>2022-08-30T09:05:27Z</time>
      </trkpt>
      <trkpt lat="43.09003" lon="0.68932">
        <ele>379</ele>
        <time>2022-08-30T09:05:30Z</time>
      </trkpt>
      <trkpt lat="43.09006" lon="0.68957">
        <ele>379</ele>
        <time>2022-08-30T09:05:44Z</time>
      </trkpt>
      <trkpt lat="43.09009" lon="0.68999">
        <ele>379</ele>
        <time>2022-08-30T09:06:08Z</time>
      </trkpt>
      <trkpt lat="43.0901" lon="0.69004">
        <ele>379</ele>
        <time>2022-08-30T09:06:11Z</time>
      </trkpt>
      <trkpt lat="43.09013" lon="0.69023">
        <ele>379</ele>
        <time>2022-08-30T09:06:22Z</time>
      </trkpt>
      <trkpt lat="43.09027" lon="0.69074">
        <ele>379</ele>
        <time>2022-08-30T09:06:53Z</time>
      </trkpt>
      <trkpt lat="43.09029" lon="0.69079">
        <ele>379</ele>
        <time>2022-08-30T09:06:56Z</time>
      </trkpt>
      <trkpt lat="43.09034" lon="0.69103">
        <ele>379</ele>
        <time>2022-08-30T09:07:11Z</time>
      </trkpt>
      <trkpt lat="43.09045" lon="0.69139">
        <ele>379</ele>
        <time>2022-08-30T09:07:33Z</time>
      </trkpt>
      <trkpt lat="43.09046" lon="0.69146">
        <ele>379</ele>
        <time>2022-08-30T09:07:37Z</time>
      </trkpt>
      <trkpt lat="43.09052" lon="0.69163">
        <ele>379</ele>
        <time>2022-08-30T09:07:48Z</time>
      </trkpt>
      <trkpt lat="43.09058" lon="0.69186">
        <ele>379</ele>
        <time>2022-08-30T09:08:03Z</time>
      </trkpt>
      <trkpt lat="43.09064" lon="0.69201">
        <ele>379</ele>
        <time>2022-08-30T09:08:12Z</time>
      </trkpt>
      <trkpt lat="43.09068" lon="0.69213">
        <ele>379</ele>
        <time>2022-08-30T09:08:20Z</time>
      </trkpt>
      <trkpt lat="43.09086" lon="0.69255">
        <ele>379</ele>
        <time>2022-08-30T09:08:48Z</time>
      </trkpt>
      <trkpt lat="43.09088" lon="0.69261">
        <ele>379</ele>
        <time>2022-08-30T09:08:53Z</time>
      </trkpt>
      <trkpt lat="43.09091" lon="0.69266">
        <ele>379</ele>
        <time>2022-08-30T09:08:57Z</time>
      </trkpt>
      <trkpt lat="43.09092" lon="0.69272">
        <ele>379</ele>
        <time>2022-08-30T09:09:12Z</time>
      </trkpt>
      <trkpt lat="43.09113" lon="0.69323">
        <ele>378</ele>
        <time>2022-08-30T09:09:45Z</time>
      </trkpt>
      <trkpt lat="43.09131" lon="0.69371">
        <ele>378</ele>
        <time>2022-08-30T09:10:17Z</time>
      </trkpt>
      <trkpt lat="43.09151" lon="0.69415">
        <ele>377</ele>
        <time>2022-08-30T09:10:47Z</time>
      </trkpt>
      <trkpt lat="43.09158" lon="0.6943">
        <ele>377</ele>
        <time>2022-08-30T09:10:58Z</time>
      </trkpt>
      <trkpt lat="43.09178" lon="0.69476">
        <ele>376</ele>
        <time>2022-08-30T09:11:29Z</time>
      </trkpt>
      <trkpt lat="43.09196" lon="0.69525">
        <ele>375</ele>
        <time>2022-08-30T09:12:01Z</time>
      </trkpt>
      <trkpt lat="43.09216" lon="0.69574">
        <ele>375</ele>
        <time>2022-08-30T09:12:34Z</time>
      </trkpt>
      <trkpt lat="43.0923" lon="0.696">
        <ele>375</ele>
        <time>2022-08-30T09:12:53Z</time>
      </trkpt>
      <trkpt lat="43.09227" lon="0.69605">
        <ele>374</ele>
        <time>2022-08-30T09:12:58Z</time>
      </trkpt>
      <trkpt lat="43.0923" lon="0.69613">
        <ele>373</ele>
        <time>2022-08-30T09:15:11Z</time>
      </trkpt>
      <trkpt lat="43.09241" lon="0.69634">
        <ele>373</ele>
        <time>2022-08-30T09:15:26Z</time>
      </trkpt>
      <trkpt lat="43.09244" lon="0.69638">
        <ele>373</ele>
        <time>2022-08-30T09:15:30Z</time>
      </trkpt>
      <trkpt lat="43.09252" lon="0.69643">
        <ele>373</ele>
        <time>2022-08-30T09:15:37Z</time>
      </trkpt>
      <trkpt lat="43.09275" lon="0.69689">
        <ele>372</ele>
        <time>2022-08-30T09:16:09Z</time>
      </trkpt>
      <trkpt lat="43.09299" lon="0.69732">
        <ele>372</ele>
        <time>2022-08-30T09:16:39Z</time>
      </trkpt>
      <trkpt lat="43.09309" lon="0.69749">
        <ele>372</ele>
        <time>2022-08-30T09:16:51Z</time>
      </trkpt>
      <trkpt lat="43.09321" lon="0.69775">
        <ele>371</ele>
        <time>2022-08-30T09:17:09Z</time>
      </trkpt>
      <trkpt lat="43.09325" lon="0.69779">
        <ele>371</ele>
        <time>2022-08-30T09:17:12Z</time>
      </trkpt>
      <trkpt lat="43.09328" lon="0.69789">
        <ele>371</ele>
        <time>2022-08-30T09:17:18Z</time>
      </trkpt>
      <trkpt lat="43.09343" lon="0.6984">
        <ele>371</ele>
        <time>2022-08-30T09:17:48Z</time>
      </trkpt>
      <trkpt lat="43.09343" lon="0.69846">
        <ele>371</ele>
        <time>2022-08-30T09:17:52Z</time>
      </trkpt>
      <trkpt lat="43.09342" lon="0.69853">
        <ele>371</ele>
        <time>2022-08-30T09:17:57Z</time>
      </trkpt>
      <trkpt lat="43.09342" lon="0.69861">
        <ele>371</ele>
        <time>2022-08-30T09:18:35Z</time>
      </trkpt>
      <trkpt lat="43.09343" lon="0.69867">
        <ele>371</ele>
        <time>2022-08-30T09:18:39Z</time>
      </trkpt>
      <trkpt lat="43.09345" lon="0.69872">
        <ele>371</ele>
        <time>2022-08-30T09:18:42Z</time>
      </trkpt>
      <trkpt lat="43.09347" lon="0.69877">
        <ele>371</ele>
        <time>2022-08-30T09:18:45Z</time>
      </trkpt>
      <trkpt lat="43.09351" lon="0.69893">
        <ele>371</ele>
        <time>2022-08-30T09:18:55Z</time>
      </trkpt>
      <trkpt lat="43.09356" lon="0.69903">
        <ele>370</ele>
        <time>2022-08-30T09:19:02Z</time>
      </trkpt>
      <trkpt lat="43.09358" lon="0.69908">
        <ele>370</ele>
        <time>2022-08-30T09:19:05Z</time>
      </trkpt>
      <trkpt lat="43.09356" lon="0.69913">
        <ele>370</ele>
        <time>2022-08-30T09:19:09Z</time>
      </trkpt>
      <trkpt lat="43.09365" lon="0.69934">
        <ele>370</ele>
        <time>2022-08-30T09:19:24Z</time>
      </trkpt>
      <trkpt lat="43.09384" lon="0.69964">
        <ele>370</ele>
        <time>2022-08-30T09:19:47Z</time>
      </trkpt>
      <trkpt lat="43.09388" lon="0.69968">
        <ele>370</ele>
        <time>2022-08-30T09:19:51Z</time>
      </trkpt>
      <trkpt lat="43.09412" lon="0.70005">
        <ele>370</ele>
        <time>2022-08-30T09:20:20Z</time>
      </trkpt>
      <trkpt lat="43.09423" lon="0.70018">
        <ele>370</ele>
        <time>2022-08-30T09:20:33Z</time>
      </trkpt>
      <trkpt lat="43.09428" lon="0.70021">
        <ele>370</ele>
        <time>2022-08-30T09:20:36Z</time>
      </trkpt>
      <trkpt lat="43.09438" lon="0.70045">
        <ele>369</ele>
        <time>2022-08-30T09:20:50Z</time>
      </trkpt>
      <trkpt lat="43.09439" lon="0.70052">
        <ele>369</ele>
        <time>2022-08-30T09:20:54Z</time>
      </trkpt>
      <trkpt lat="43.09453" lon="0.70095">
        <ele>369</ele>
        <time>2022-08-30T09:21:21Z</time>
      </trkpt>
      <trkpt lat="43.09453" lon="0.70102">
        <ele>368</ele>
        <time>2022-08-30T09:21:25Z</time>
      </trkpt>
      <trkpt lat="43.09457" lon="0.70109">
        <ele>368</ele>
        <time>2022-08-30T09:21:30Z</time>
      </trkpt>
      <trkpt lat="43.09459" lon="0.70123">
        <ele>368</ele>
        <time>2022-08-30T09:21:39Z</time>
      </trkpt>
      <trkpt lat="43.0946" lon="0.70145">
        <ele>368</ele>
        <time>2022-08-30T09:21:57Z</time>
      </trkpt>
      <trkpt lat="43.09456" lon="0.70162">
        <ele>368</ele>
        <time>2022-08-30T09:22:06Z</time>
      </trkpt>
      <trkpt lat="43.09454" lon="0.70169">
        <ele>368</ele>
        <time>2022-08-30T09:22:10Z</time>
      </trkpt>
      <trkpt lat="43.09453" lon="0.70175">
        <ele>368</ele>
        <time>2022-08-30T09:22:14Z</time>
      </trkpt>
      <trkpt lat="43.09456" lon="0.70204">
        <ele>368</ele>
        <time>2022-08-30T09:22:32Z</time>
      </trkpt>
      <trkpt lat="43.09451" lon="0.70236">
        <ele>368</ele>
        <time>2022-08-30T09:22:50Z</time>
      </trkpt>
      <trkpt lat="43.09451" lon="0.70244">
        <ele>368</ele>
        <time>2022-08-30T09:22:55Z</time>
      </trkpt>
      <trkpt lat="43.09453" lon="0.70251">
        <ele>368</ele>
        <time>2022-08-30T09:22:59Z</time>
      </trkpt>
      <trkpt lat="43.09453" lon="0.70259">
        <ele>368</ele>
        <time>2022-08-30T09:23:05Z</time>
      </trkpt>
      <trkpt lat="43.09455" lon="0.70288">
        <ele>368</ele>
        <time>2022-08-30T09:23:22Z</time>
      </trkpt>
      <trkpt lat="43.09455" lon="0.70295">
        <ele>368</ele>
        <time>2022-08-30T09:23:27Z</time>
      </trkpt>
      <trkpt lat="43.09458" lon="0.70304">
        <ele>368</ele>
        <time>2022-08-30T09:23:32Z</time>
      </trkpt>
      <trkpt lat="43.09454" lon="0.7032">
        <ele>368</ele>
        <time>2022-08-30T09:23:41Z</time>
      </trkpt>
      <trkpt lat="43.09457" lon="0.70326">
        <ele>368</ele>
        <time>2022-08-30T09:23:45Z</time>
      </trkpt>
      <trkpt lat="43.0946" lon="0.70361">
        <ele>369</ele>
        <time>2022-08-30T09:24:08Z</time>
      </trkpt>
      <trkpt lat="43.09458" lon="0.70367">
        <ele>369</ele>
        <time>2022-08-30T09:24:13Z</time>
      </trkpt>
      <trkpt lat="43.09459" lon="0.70374">
        <ele>369</ele>
        <time>2022-08-30T09:24:18Z</time>
      </trkpt>
      <trkpt lat="43.09463" lon="0.70389">
        <ele>369</ele>
        <time>2022-08-30T09:24:27Z</time>
      </trkpt>
      <trkpt lat="43.09465" lon="0.70415">
        <ele>368</ele>
        <time>2022-08-30T09:24:42Z</time>
      </trkpt>
      <trkpt lat="43.09462" lon="0.70423">
        <ele>368</ele>
        <time>2022-08-30T09:24:50Z</time>
      </trkpt>
      <trkpt lat="43.09459" lon="0.70431">
        <ele>368</ele>
        <time>2022-08-30T09:24:58Z</time>
      </trkpt>
      <trkpt lat="43.09457" lon="0.70442">
        <ele>369</ele>
        <time>2022-08-30T09:25:40Z</time>
      </trkpt>
      <trkpt lat="43.09462" lon="0.70449">
        <ele>368</ele>
        <time>2022-08-30T09:25:58Z</time>
      </trkpt>
      <trkpt lat="43.09467" lon="0.70465">
        <ele>368</ele>
        <time>2022-08-30T09:26:09Z</time>
      </trkpt>
      <trkpt lat="43.09463" lon="0.70517">
        <ele>369</ele>
        <time>2022-08-30T09:26:42Z</time>
      </trkpt>
      <trkpt lat="43.09463" lon="0.70524">
        <ele>369</ele>
        <time>2022-08-30T09:26:47Z</time>
      </trkpt>
      <trkpt lat="43.09462" lon="0.7053">
        <ele>369</ele>
        <time>2022-08-30T09:26:53Z</time>
      </trkpt>
      <trkpt lat="43.09465" lon="0.70554">
        <ele>368</ele>
        <time>2022-08-30T09:27:17Z</time>
      </trkpt>
      <trkpt lat="43.09458" lon="0.70578">
        <ele>368</ele>
        <time>2022-08-30T09:27:34Z</time>
      </trkpt>
      <trkpt lat="43.0946" lon="0.70587">
        <ele>368</ele>
        <time>2022-08-30T09:27:39Z</time>
      </trkpt>
      <trkpt lat="43.0946" lon="0.70596">
        <ele>368</ele>
        <time>2022-08-30T09:27:57Z</time>
      </trkpt>
      <trkpt lat="43.09468" lon="0.70599">
        <ele>368</ele>
        <time>2022-08-30T09:28:15Z</time>
      </trkpt>
      <trkpt lat="43.09475" lon="0.70591">
        <ele>368</ele>
        <time>2022-08-30T09:30:52Z</time>
      </trkpt>
      <trkpt lat="43.09477" lon="0.70604">
        <ele>368</ele>
        <time>2022-08-30T09:31:49Z</time>
      </trkpt>
      <trkpt lat="43.09473" lon="0.70602">
        <ele>368</ele>
        <time>2022-08-30T09:33:30Z</time>
      </trkpt>
      <trkpt lat="43.09478" lon="0.70599">
        <ele>368</ele>
        <time>2022-08-30T09:38:43Z</time>
      </trkpt>
      <trkpt lat="43.09482" lon="0.70595">
        <ele>368</ele>
        <time>2022-08-30T09:38:46Z</time>
      </trkpt>
      <trkpt lat="43.09491" lon="0.706">
        <ele>368</ele>
        <time>2022-08-30T09:38:57Z</time>
      </trkpt>
      <trkpt lat="43.09501" lon="0.7061">
        <ele>368</ele>
        <time>2022-08-30T09:39:07Z</time>
      </trkpt>
      <trkpt lat="43.09506" lon="0.70612">
        <ele>368</ele>
        <time>2022-08-30T09:39:11Z</time>
      </trkpt>
      <trkpt lat="43.09509" lon="0.70604">
        <ele>368</ele>
        <time>2022-08-30T09:39:13Z</time>
      </trkpt>
      <trkpt lat="43.09514" lon="0.70602">
        <ele>368</ele>
        <time>2022-08-30T09:39:18Z</time>
      </trkpt>
      <trkpt lat="43.09525" lon="0.7061">
        <ele>367</ele>
        <time>2022-08-30T09:39:29Z</time>
      </trkpt>
      <trkpt lat="43.09547" lon="0.70617">
        <ele>367</ele>
        <time>2022-08-30T09:39:48Z</time>
      </trkpt>
      <trkpt lat="43.09561" lon="0.70609">
        <ele>366</ele>
        <time>2022-08-30T09:40:02Z</time>
      </trkpt>
      <trkpt lat="43.09567" lon="0.70609">
        <ele>366</ele>
        <time>2022-08-30T09:40:10Z</time>
      </trkpt>
      <trkpt lat="43.09594" lon="0.70616">
        <ele>365</ele>
        <time>2022-08-30T09:40:32Z</time>
      </trkpt>
      <trkpt lat="43.09601" lon="0.70615">
        <ele>365</ele>
        <time>2022-08-30T09:40:38Z</time>
      </trkpt>
      <trkpt lat="43.09607" lon="0.70618">
        <ele>365</ele>
        <time>2022-08-30T09:40:48Z</time>
      </trkpt>
      <trkpt lat="43.09617" lon="0.70622">
        <ele>365</ele>
        <time>2022-08-30T09:40:57Z</time>
      </trkpt>
      <trkpt lat="43.09656" lon="0.70619">
        <ele>365</ele>
        <time>2022-08-30T09:41:31Z</time>
      </trkpt>
      <trkpt lat="43.0969" lon="0.70624">
        <ele>366</ele>
        <time>2022-08-30T09:41:59Z</time>
      </trkpt>
      <trkpt lat="43.09699" lon="0.70619">
        <ele>366</ele>
        <time>2022-08-30T09:42:09Z</time>
      </trkpt>
      <trkpt lat="43.09715" lon="0.70616">
        <ele>367</ele>
        <time>2022-08-30T09:42:22Z</time>
      </trkpt>
      <trkpt lat="43.0972" lon="0.70618">
        <ele>368</ele>
        <time>2022-08-30T09:42:26Z</time>
      </trkpt>
      <trkpt lat="43.09759" lon="0.70644">
        <ele>368</ele>
        <time>2022-08-30T09:42:59Z</time>
      </trkpt>
      <trkpt lat="43.09768" lon="0.70649">
        <ele>367</ele>
        <time>2022-08-30T09:43:07Z</time>
      </trkpt>
      <trkpt lat="43.09777" lon="0.70657">
        <ele>367</ele>
        <time>2022-08-30T09:43:16Z</time>
      </trkpt>
      <trkpt lat="43.09781" lon="0.70659">
        <ele>367</ele>
        <time>2022-08-30T09:43:20Z</time>
      </trkpt>
      <trkpt lat="43.09798" lon="0.70672">
        <ele>367</ele>
        <time>2022-08-30T09:43:36Z</time>
      </trkpt>
      <trkpt lat="43.09807" lon="0.70678">
        <ele>367</ele>
        <time>2022-08-30T09:43:43Z</time>
      </trkpt>
      <trkpt lat="43.09833" lon="0.70708">
        <ele>366</ele>
        <time>2022-08-30T09:44:08Z</time>
      </trkpt>
      <trkpt lat="43.09844" lon="0.70729">
        <ele>366</ele>
        <time>2022-08-30T09:44:24Z</time>
      </trkpt>
      <trkpt lat="43.09844" lon="0.70735">
        <ele>366</ele>
        <time>2022-08-30T09:44:27Z</time>
      </trkpt>
      <trkpt lat="43.09831" lon="0.70755">
        <ele>365</ele>
        <time>2022-08-30T09:44:39Z</time>
      </trkpt>
      <trkpt lat="43.09825" lon="0.70763">
        <ele>364</ele>
        <time>2022-08-30T09:44:45Z</time>
      </trkpt>
      <trkpt lat="43.09822" lon="0.70765">
        <ele>364</ele>
        <time>2022-08-30T09:44:48Z</time>
      </trkpt>
      <trkpt lat="43.09799" lon="0.70796">
        <ele>363</ele>
        <time>2022-08-30T09:45:11Z</time>
      </trkpt>
      <trkpt lat="43.09796" lon="0.70803">
        <ele>363</ele>
        <time>2022-08-30T09:45:15Z</time>
      </trkpt>
      <trkpt lat="43.09797" lon="0.70822">
        <ele>363</ele>
        <time>2022-08-30T09:45:26Z</time>
      </trkpt>
      <trkpt lat="43.09801" lon="0.7084">
        <ele>363</ele>
        <time>2022-08-30T09:45:37Z</time>
      </trkpt>
      <trkpt lat="43.09804" lon="0.70845">
        <ele>364</ele>
        <time>2022-08-30T09:45:41Z</time>
      </trkpt>
      <trkpt lat="43.09804" lon="0.70851">
        <ele>364</ele>
        <time>2022-08-30T09:45:45Z</time>
      </trkpt>
      <trkpt lat="43.09803" lon="0.70858">
        <ele>364</ele>
        <time>2022-08-30T09:45:49Z</time>
      </trkpt>
      <trkpt lat="43.09803" lon="0.70865">
        <ele>364</ele>
        <time>2022-08-30T09:46:08Z</time>
      </trkpt>
      <trkpt lat="43.09805" lon="0.70869">
        <ele>364</ele>
        <time>2022-08-30T09:46:11Z</time>
      </trkpt>
      <trkpt lat="43.09803" lon="0.70875">
        <ele>364</ele>
        <time>2022-08-30T09:46:14Z</time>
      </trkpt>
      <trkpt lat="43.09799" lon="0.70879">
        <ele>364</ele>
        <time>2022-08-30T09:46:17Z</time>
      </trkpt>
      <trkpt lat="43.09788" lon="0.70896">
        <ele>363</ele>
        <time>2022-08-30T09:46:30Z</time>
      </trkpt>
      <trkpt lat="43.09783" lon="0.70899">
        <ele>363</ele>
        <time>2022-08-30T09:46:33Z</time>
      </trkpt>
      <trkpt lat="43.09767" lon="0.7092">
        <ele>363</ele>
        <time>2022-08-30T09:46:50Z</time>
      </trkpt>
      <trkpt lat="43.09752" lon="0.70959">
        <ele>362</ele>
        <time>2022-08-30T09:47:15Z</time>
      </trkpt>
      <trkpt lat="43.09748" lon="0.70991">
        <ele>362</ele>
        <time>2022-08-30T09:47:33Z</time>
      </trkpt>
      <trkpt lat="43.09748" lon="0.70996">
        <ele>363</ele>
        <time>2022-08-30T09:47:36Z</time>
      </trkpt>
      <trkpt lat="43.09746" lon="0.71002">
        <ele>363</ele>
        <time>2022-08-30T09:47:40Z</time>
      </trkpt>
      <trkpt lat="43.09746" lon="0.71008">
        <ele>363</ele>
        <time>2022-08-30T09:47:43Z</time>
      </trkpt>
      <trkpt lat="43.09746" lon="0.71013">
        <ele>362</ele>
        <time>2022-08-30T09:47:46Z</time>
      </trkpt>
      <trkpt lat="43.09746" lon="0.71019">
        <ele>363</ele>
        <time>2022-08-30T09:47:49Z</time>
      </trkpt>
      <trkpt lat="43.09744" lon="0.71075">
        <ele>362</ele>
        <time>2022-08-30T09:48:21Z</time>
      </trkpt>
      <trkpt lat="43.09748" lon="0.71086">
        <ele>362</ele>
        <time>2022-08-30T09:48:28Z</time>
      </trkpt>
      <trkpt lat="43.0976" lon="0.71103">
        <ele>362</ele>
        <time>2022-08-30T09:48:41Z</time>
      </trkpt>
      <trkpt lat="43.09762" lon="0.71108">
        <ele>362</ele>
        <time>2022-08-30T09:48:44Z</time>
      </trkpt>
      <trkpt lat="43.09763" lon="0.7112">
        <ele>362</ele>
        <time>2022-08-30T09:48:51Z</time>
      </trkpt>
      <trkpt lat="43.09754" lon="0.71161">
        <ele>361</ele>
        <time>2022-08-30T09:49:15Z</time>
      </trkpt>
      <trkpt lat="43.09755" lon="0.71169">
        <ele>361</ele>
        <time>2022-08-30T09:49:19Z</time>
      </trkpt>
      <trkpt lat="43.09759" lon="0.71211">
        <ele>361</ele>
        <time>2022-08-30T09:49:43Z</time>
      </trkpt>
      <trkpt lat="43.09768" lon="0.71235">
        <ele>362</ele>
        <time>2022-08-30T09:49:58Z</time>
      </trkpt>
      <trkpt lat="43.09773" lon="0.71247">
        <ele>362</ele>
        <time>2022-08-30T09:50:05Z</time>
      </trkpt>
      <trkpt lat="43.09775" lon="0.71254">
        <ele>362</ele>
        <time>2022-08-30T09:50:09Z</time>
      </trkpt>
      <trkpt lat="43.09781" lon="0.71269">
        <ele>362</ele>
        <time>2022-08-30T09:50:19Z</time>
      </trkpt>
      <trkpt lat="43.09783" lon="0.71284">
        <ele>363</ele>
        <time>2022-08-30T09:50:28Z</time>
      </trkpt>
      <trkpt lat="43.09805" lon="0.71335">
        <ele>365</ele>
        <time>2022-08-30T09:51:01Z</time>
      </trkpt>
      <trkpt lat="43.09822" lon="0.71381">
        <ele>366</ele>
        <time>2022-08-30T09:51:32Z</time>
      </trkpt>
      <trkpt lat="43.09823" lon="0.71389">
        <ele>367</ele>
        <time>2022-08-30T09:51:36Z</time>
      </trkpt>
      <trkpt lat="43.09844" lon="0.71438">
        <ele>368</ele>
        <time>2022-08-30T09:52:07Z</time>
      </trkpt>
      <trkpt lat="43.09867" lon="0.71485">
        <ele>368</ele>
        <time>2022-08-30T09:52:39Z</time>
      </trkpt>
      <trkpt lat="43.09876" lon="0.715">
        <ele>368</ele>
        <time>2022-08-30T09:52:49Z</time>
      </trkpt>
      <trkpt lat="43.09878" lon="0.71505">
        <ele>368</ele>
        <time>2022-08-30T09:52:52Z</time>
      </trkpt>
      <trkpt lat="43.09883" lon="0.71515">
        <ele>368</ele>
        <time>2022-08-30T09:52:59Z</time>
      </trkpt>
      <trkpt lat="43.09887" lon="0.71528">
        <ele>368</ele>
        <time>2022-08-30T09:53:07Z</time>
      </trkpt>
      <trkpt lat="43.09895" lon="0.71544">
        <ele>368</ele>
        <time>2022-08-30T09:53:18Z</time>
      </trkpt>
      <trkpt lat="43.09898" lon="0.71554">
        <ele>368</ele>
        <time>2022-08-30T09:53:24Z</time>
      </trkpt>
      <trkpt lat="43.09901" lon="0.71559">
        <ele>368</ele>
        <time>2022-08-30T09:53:27Z</time>
      </trkpt>
      <trkpt lat="43.09905" lon="0.71563">
        <ele>368</ele>
        <time>2022-08-30T09:53:31Z</time>
      </trkpt>
      <trkpt lat="43.09924" lon="0.71618">
        <ele>369</ele>
        <time>2022-08-30T09:54:04Z</time>
      </trkpt>
      <trkpt lat="43.09926" lon="0.71625">
        <ele>369</ele>
        <time>2022-08-30T09:54:08Z</time>
      </trkpt>
      <trkpt lat="43.09937" lon="0.71647">
        <ele>369</ele>
        <time>2022-08-30T09:54:23Z</time>
      </trkpt>
      <trkpt lat="43.09958" lon="0.71695">
        <ele>368</ele>
        <time>2022-08-30T09:54:54Z</time>
      </trkpt>
      <trkpt lat="43.09982" lon="0.71741">
        <ele>368</ele>
        <time>2022-08-30T09:55:25Z</time>
      </trkpt>
      <trkpt lat="43.0999" lon="0.71757">
        <ele>368</ele>
        <time>2022-08-30T09:55:36Z</time>
      </trkpt>
      <trkpt lat="43.09992" lon="0.71763">
        <ele>368</ele>
        <time>2022-08-30T09:55:39Z</time>
      </trkpt>
      <trkpt lat="43.10016" lon="0.71812">
        <ele>369</ele>
        <time>2022-08-30T09:56:12Z</time>
      </trkpt>
      <trkpt lat="43.10021" lon="0.71822">
        <ele>369</ele>
        <time>2022-08-30T09:56:19Z</time>
      </trkpt>
      <trkpt lat="43.10034" lon="0.71855">
        <ele>369</ele>
        <time>2022-08-30T09:56:39Z</time>
      </trkpt>
      <trkpt lat="43.10041" lon="0.71869">
        <ele>369</ele>
        <time>2022-08-30T09:56:49Z</time>
      </trkpt>
      <trkpt lat="43.10043" lon="0.71874">
        <ele>369</ele>
        <time>2022-08-30T09:56:52Z</time>
      </trkpt>
      <trkpt lat="43.10057" lon="0.71905">
        <ele>369</ele>
        <time>2022-08-30T09:57:12Z</time>
      </trkpt>
      <trkpt lat="43.10065" lon="0.71927">
        <ele>368</ele>
        <time>2022-08-30T09:57:26Z</time>
      </trkpt>
      <trkpt lat="43.10068" lon="0.71931">
        <ele>368</ele>
        <time>2022-08-30T09:57:29Z</time>
      </trkpt>
      <trkpt lat="43.10078" lon="0.71957">
        <ele>369</ele>
        <time>2022-08-30T09:57:45Z</time>
      </trkpt>
      <trkpt lat="43.10087" lon="0.71972">
        <ele>369</ele>
        <time>2022-08-30T09:57:55Z</time>
      </trkpt>
      <trkpt lat="43.10088" lon="0.71978">
        <ele>369</ele>
        <time>2022-08-30T09:57:59Z</time>
      </trkpt>
      <trkpt lat="43.10092" lon="0.71986">
        <ele>369</ele>
        <time>2022-08-30T09:58:05Z</time>
      </trkpt>
      <trkpt lat="43.10093" lon="0.71992">
        <ele>369</ele>
        <time>2022-08-30T09:58:38Z</time>
      </trkpt>
      <trkpt lat="43.10098" lon="0.71998">
        <ele>369</ele>
        <time>2022-08-30T09:58:44Z</time>
      </trkpt>
      <trkpt lat="43.10102" lon="0.72005">
        <ele>369</ele>
        <time>2022-08-30T09:58:49Z</time>
      </trkpt>
      <trkpt lat="43.10109" lon="0.72013">
        <ele>369</ele>
        <time>2022-08-30T09:58:56Z</time>
      </trkpt>
      <trkpt lat="43.1011" lon="0.7202">
        <ele>369</ele>
        <time>2022-08-30T09:58:59Z</time>
      </trkpt>
      <trkpt lat="43.10114" lon="0.72024">
        <ele>369</ele>
        <time>2022-08-30T09:59:03Z</time>
      </trkpt>
      <trkpt lat="43.10127" lon="0.72055">
        <ele>369</ele>
        <time>2022-08-30T09:59:23Z</time>
      </trkpt>
      <trkpt lat="43.10136" lon="0.72076">
        <ele>369</ele>
        <time>2022-08-30T09:59:36Z</time>
      </trkpt>
      <trkpt lat="43.10138" lon="0.72081">
        <ele>369</ele>
        <time>2022-08-30T09:59:39Z</time>
      </trkpt>
      <trkpt lat="43.1015" lon="0.72108">
        <ele>369</ele>
        <time>2022-08-30T09:59:57Z</time>
      </trkpt>
      <trkpt lat="43.10158" lon="0.72132">
        <ele>369</ele>
        <time>2022-08-30T10:00:12Z</time>
      </trkpt>
      <trkpt lat="43.10161" lon="0.72137">
        <ele>369</ele>
        <time>2022-08-30T10:00:15Z</time>
      </trkpt>
      <trkpt lat="43.10165" lon="0.72141">
        <ele>369</ele>
        <time>2022-08-30T10:00:18Z</time>
      </trkpt>
      <trkpt lat="43.1017" lon="0.7215">
        <ele>369</ele>
        <time>2022-08-30T10:00:24Z</time>
      </trkpt>
      <trkpt lat="43.10185" lon="0.72189">
        <ele>370</ele>
        <time>2022-08-30T10:00:49Z</time>
      </trkpt>
      <trkpt lat="43.10189" lon="0.72193">
        <ele>370</ele>
        <time>2022-08-30T10:00:52Z</time>
      </trkpt>
      <trkpt lat="43.10192" lon="0.722">
        <ele>370</ele>
        <time>2022-08-30T10:00:56Z</time>
      </trkpt>
      <trkpt lat="43.10194" lon="0.72206">
        <ele>370</ele>
        <time>2022-08-30T10:01:00Z</time>
      </trkpt>
      <trkpt lat="43.10206" lon="0.72224">
        <ele>370</ele>
        <time>2022-08-30T10:01:13Z</time>
      </trkpt>
      <trkpt lat="43.10213" lon="0.72241">
        <ele>370</ele>
        <time>2022-08-30T10:01:24Z</time>
      </trkpt>
      <trkpt lat="43.10214" lon="0.72248">
        <ele>371</ele>
        <time>2022-08-30T10:01:28Z</time>
      </trkpt>
      <trkpt lat="43.10231" lon="0.72284">
        <ele>371</ele>
        <time>2022-08-30T10:01:52Z</time>
      </trkpt>
      <trkpt lat="43.10236" lon="0.72293">
        <ele>371</ele>
        <time>2022-08-30T10:01:58Z</time>
      </trkpt>
      <trkpt lat="43.10239" lon="0.72299">
        <ele>371</ele>
        <time>2022-08-30T10:02:02Z</time>
      </trkpt>
      <trkpt lat="43.10242" lon="0.72305">
        <ele>371</ele>
        <time>2022-08-30T10:02:06Z</time>
      </trkpt>
      <trkpt lat="43.10245" lon="0.72316">
        <ele>371</ele>
        <time>2022-08-30T10:02:12Z</time>
      </trkpt>
      <trkpt lat="43.10253" lon="0.72326">
        <ele>372</ele>
        <time>2022-08-30T10:02:20Z</time>
      </trkpt>
      <trkpt lat="43.10261" lon="0.7235">
        <ele>371</ele>
        <time>2022-08-30T10:02:35Z</time>
      </trkpt>
      <trkpt lat="43.1027" lon="0.72364">
        <ele>372</ele>
        <time>2022-08-30T10:02:45Z</time>
      </trkpt>
      <trkpt lat="43.10279" lon="0.72385">
        <ele>372</ele>
        <time>2022-08-30T10:02:58Z</time>
      </trkpt>
      <trkpt lat="43.10285" lon="0.72396">
        <ele>372</ele>
        <time>2022-08-30T10:03:06Z</time>
      </trkpt>
      <trkpt lat="43.10306" lon="0.7245">
        <ele>372</ele>
        <time>2022-08-30T10:03:40Z</time>
      </trkpt>
      <trkpt lat="43.10308" lon="0.72455">
        <ele>372</ele>
        <time>2022-08-30T10:03:43Z</time>
      </trkpt>
      <trkpt lat="43.10312" lon="0.72461">
        <ele>372</ele>
        <time>2022-08-30T10:03:47Z</time>
      </trkpt>
      <trkpt lat="43.10314" lon="0.72467">
        <ele>372</ele>
        <time>2022-08-30T10:03:51Z</time>
      </trkpt>
      <trkpt lat="43.10316" lon="0.72472">
        <ele>372</ele>
        <time>2022-08-30T10:03:54Z</time>
      </trkpt>
      <trkpt lat="43.10318" lon="0.72477">
        <ele>372</ele>
        <time>2022-08-30T10:03:57Z</time>
      </trkpt>
      <trkpt lat="43.10327" lon="0.72493">
        <ele>372</ele>
        <time>2022-08-30T10:04:08Z</time>
      </trkpt>
      <trkpt lat="43.10347" lon="0.7254">
        <ele>372</ele>
        <time>2022-08-30T10:04:38Z</time>
      </trkpt>
      <trkpt lat="43.10351" lon="0.72545">
        <ele>372</ele>
        <time>2022-08-30T10:04:42Z</time>
      </trkpt>
      <trkpt lat="43.10369" lon="0.72594">
        <ele>372</ele>
        <time>2022-08-30T10:05:13Z</time>
      </trkpt>
      <trkpt lat="43.10392" lon="0.72631">
        <ele>372</ele>
        <time>2022-08-30T10:05:38Z</time>
      </trkpt>
      <trkpt lat="43.10396" lon="0.72635">
        <ele>372</ele>
        <time>2022-08-30T10:05:42Z</time>
      </trkpt>
      <trkpt lat="43.10405" lon="0.72644">
        <ele>372</ele>
        <time>2022-08-30T10:05:54Z</time>
      </trkpt>
      <trkpt lat="43.10415" lon="0.72673">
        <ele>372</ele>
        <time>2022-08-30T10:06:06Z</time>
      </trkpt>
      <trkpt lat="43.10416" lon="0.7268">
        <ele>372</ele>
        <time>2022-08-30T10:06:09Z</time>
      </trkpt>
      <trkpt lat="43.10427" lon="0.727">
        <ele>372</ele>
        <time>2022-08-30T10:06:25Z</time>
      </trkpt>
      <trkpt lat="43.10447" lon="0.72722">
        <ele>373</ele>
        <time>2022-08-30T10:06:45Z</time>
      </trkpt>
      <trkpt lat="43.10451" lon="0.72725">
        <ele>372</ele>
        <time>2022-08-30T10:06:48Z</time>
      </trkpt>
      <trkpt lat="43.10471" lon="0.72753">
        <ele>373</ele>
        <time>2022-08-30T10:07:07Z</time>
      </trkpt>
      <trkpt lat="43.10477" lon="0.72762">
        <ele>373</ele>
        <time>2022-08-30T10:07:14Z</time>
      </trkpt>
      <trkpt lat="43.1048" lon="0.72767">
        <ele>373</ele>
        <time>2022-08-30T10:07:17Z</time>
      </trkpt>
      <trkpt lat="43.10483" lon="0.72773">
        <ele>373</ele>
        <time>2022-08-30T10:07:20Z</time>
      </trkpt>
      <trkpt lat="43.10493" lon="0.72788">
        <ele>373</ele>
        <time>2022-08-30T10:07:31Z</time>
      </trkpt>
      <trkpt lat="43.10494" lon="0.72797">
        <ele>373</ele>
        <time>2022-08-30T10:07:35Z</time>
      </trkpt>
      <trkpt lat="43.10495" lon="0.72803">
        <ele>373</ele>
        <time>2022-08-30T10:07:38Z</time>
      </trkpt>
      <trkpt lat="43.10505" lon="0.72847">
        <ele>373</ele>
        <time>2022-08-30T10:08:09Z</time>
      </trkpt>
      <trkpt lat="43.10508" lon="0.72858">
        <ele>373</ele>
        <time>2022-08-30T10:08:15Z</time>
      </trkpt>
      <trkpt lat="43.10509" lon="0.72863">
        <ele>373</ele>
        <time>2022-08-30T10:08:18Z</time>
      </trkpt>
      <trkpt lat="43.10512" lon="0.72869">
        <ele>373</ele>
        <time>2022-08-30T10:08:21Z</time>
      </trkpt>
      <trkpt lat="43.10512" lon="0.72875">
        <ele>373</ele>
        <time>2022-08-30T10:08:24Z</time>
      </trkpt>
      <trkpt lat="43.1051" lon="0.72888">
        <ele>373</ele>
        <time>2022-08-30T10:08:31Z</time>
      </trkpt>
      <trkpt lat="43.1051" lon="0.72901">
        <ele>373</ele>
        <time>2022-08-30T10:08:40Z</time>
      </trkpt>
      <trkpt lat="43.10512" lon="0.72906">
        <ele>373</ele>
        <time>2022-08-30T10:08:44Z</time>
      </trkpt>
      <trkpt lat="43.10497" lon="0.72923">
        <ele>373</ele>
        <time>2022-08-30T10:14:27Z</time>
      </trkpt>
      <trkpt lat="43.10495" lon="0.72912">
        <ele>373</ele>
        <time>2022-08-30T10:14:45Z</time>
      </trkpt>
      <trkpt lat="43.1049" lon="0.72921">
        <ele>373</ele>
        <time>2022-08-30T10:15:33Z</time>
      </trkpt>
    </trkseg>
  </trk>
</gpx>